Darstellungsparameter: Aktuell verwendete Einstellungen:
Skalierung der Graphiken ... ?
xyx+y,   Skalierungsfaktor:      Skalierung: Modus: x, Faktor: 1
Darstellungszeitraum ... ?
Vom - - bis: - -   Zeitraum: 02.12.2018 - 06.12.2018
Min/Max/Avg-Anzeige ... ?
Zeige MMA aktuell
Zeige MMA Monat
Zeige MMA alles
Zeige --A aktuell
Zeige --A Monat
Zeige --A alles
Keine MMA-Anzeige
MMA:
Keine MMA-Graphiken
MMA-Basis: 02.12.2018 - 06.12.2018
Quicknavigation für Darstellung... ?
Tage:      1T, 2T, 3T, 5T -1T -2T -3T -5T +1T +2T +3T +5T
Wochen: 1W, 2W, 3W -1W -2W -3W +1W +2W +3W
Monate: 1M, 3M, 6M -1M -3M -6M +1M +3M +6M
Jahre:    1J, 3J, 5J, 10J -1J -3J -5J -10J +1J +3J +5J +10J
Nutze für die Darstellung ... ?
Originaldaten oder Mittelwerte auf ...
Stundenbasis Tagesbasis Wochenbasis
Monatsbasis Jahresbasis      Datenbasis: Original-Daten
Darstellen als:
Statistik (Auto) Statistik J:M      Darstellung:
Zur Graphik,    zurück zur Übersicht aller Sensoren.
 
Tabellarische Datenbersicht: ?
 
Sensor: Nr:Datum:Temp:Abs-Feuchte:Windchill:Wind:
Aussen-T/F 1 02-12-2018 00:00:00 8.9 C 7.8 g/m*3 8.9 C 1.6 km/h
2 02-12-2018 00:05:00 8.9 C 7.8 g/m*3 8.9 C 0 km/h
3 02-12-2018 00:10:00 8.9 C 7.8 g/m*3 7.69 C 8.1 km/h
4 02-12-2018 00:15:00 9.1 C 7.81 g/m*3 9.1 C 4.8 km/h
5 02-12-2018 00:20:00 9.1 C 7.9 g/m*3 9.1 C 0 km/h
6 02-12-2018 00:25:00 9.1 C 7.9 g/m*3 9.1 C 0 km/h
7 02-12-2018 00:30:00 9.1 C 7.81 g/m*3 9.1 C 3.2 km/h
8 02-12-2018 00:35:00 9.2 C 7.95 g/m*3 9.2 C 4.8 km/h
9 02-12-2018 00:40:00 9.2 C 7.86 g/m*3 8.45 C 6.4 km/h
10 02-12-2018 00:45:00 9.2 C 7.86 g/m*3 9.2 C 4.8 km/h
11 02-12-2018 00:50:00 9.2 C 7.86 g/m*3 8.45 C 6.4 km/h
12 02-12-2018 00:55:00 9.3 C 7.91 g/m*3 8.56 C 6.4 km/h
13 02-12-2018 01:00:00 9.3 C 7.91 g/m*3 9.3 C 3.2 km/h
14 02-12-2018 01:05:00 9.3 C 7.91 g/m*3 9.3 C 0 km/h
15 02-12-2018 01:10:00 9.3 C 7.91 g/m*3 9.3 C 0 km/h
16 02-12-2018 01:15:00 9.3 C 7.91 g/m*3 9.3 C 3.2 km/h
17 02-12-2018 01:20:00 9.3 C 7.91 g/m*3 9.3 C 4.8 km/h
18 02-12-2018 01:25:00 9.3 C 7.91 g/m*3 9.3 C 1.6 km/h
19 02-12-2018 01:30:00 9.4 C 7.96 g/m*3 9.4 C 3.2 km/h
20 02-12-2018 01:35:00 9.4 C 7.96 g/m*3 9.4 C 4.8 km/h
21 02-12-2018 01:40:00 9.6 C 7.97 g/m*3 8.91 C 6.4 km/h
22 02-12-2018 01:45:00 9.6 C 7.97 g/m*3 8.91 C 6.4 km/h
23 02-12-2018 01:50:00 9.6 C 7.97 g/m*3 9.6 C 4.8 km/h
24 02-12-2018 01:55:00 9.7 C 8.02 g/m*3 9.7 C 3.2 km/h
25 02-12-2018 02:00:00 9.7 C 8.02 g/m*3 9.7 C 1.6 km/h
Sensor: Nr:Datum:Temp:Abs-Feuchte:Windchill:Wind:
Aussen-T/F 26 02-12-2018 02:05:00 9.7 C 8.02 g/m*3 9.7 C 3.2 km/h
27 02-12-2018 02:10:00 9.8 C 8.07 g/m*3 9.14 C 6.4 km/h
28 02-12-2018 02:15:00 9.8 C 8.07 g/m*3 9.8 C 0 km/h
29 02-12-2018 02:20:00 9.8 C 8.07 g/m*3 9.8 C 1.6 km/h
30 02-12-2018 02:25:00 9.7 C 8.02 g/m*3 9.7 C 0 km/h
31 02-12-2018 02:30:00 9.7 C 8.02 g/m*3 9.7 C 0 km/h
32 02-12-2018 02:35:00 9.8 C 8.07 g/m*3 8.45 C 9.7 km/h
33 02-12-2018 02:40:00 9.8 C 8.07 g/m*3 8.75 C 8.1 km/h
34 02-12-2018 02:45:00 9.8 C 8.07 g/m*3 9.8 C 4.8 km/h
35 02-12-2018 02:50:00 9.8 C 8.07 g/m*3 9.8 C 1.6 km/h
36 02-12-2018 02:55:00 9.8 C 8.07 g/m*3 9.8 C 0 km/h
37 02-12-2018 03:00:00 9.8 C 8.07 g/m*3 9.8 C 0 km/h
38 02-12-2018 03:05:00 9.8 C 8.07 g/m*3 9.8 C 1.6 km/h
39 02-12-2018 03:10:00 9.8 C 8.07 g/m*3 9.14 C 6.4 km/h
40 02-12-2018 03:15:00 9.9 C 8.12 g/m*3 9.9 C 3.2 km/h
41 02-12-2018 03:20:00 9.9 C 8.12 g/m*3 9.9 C 4.8 km/h
42 02-12-2018 03:25:00 9.9 C 8.12 g/m*3 9.9 C 1.6 km/h
43 02-12-2018 03:30:00 10 C 8.17 g/m*3 10 C 0 km/h
44 02-12-2018 03:35:00 9.9 C 8.12 g/m*3 9.9 C 0 km/h
45 02-12-2018 03:40:00 9.9 C 8.12 g/m*3 8.06 C 12.9 km/h
46 02-12-2018 03:45:00 9.9 C 8.12 g/m*3 8.06 C 12.9 km/h
47 02-12-2018 03:50:00 10.1 C 8.23 g/m*3 10.1 C 3.2 km/h
48 02-12-2018 03:55:00 10.1 C 8.23 g/m*3 10.1 C 4.8 km/h
49 02-12-2018 04:00:00 10.1 C 8.23 g/m*3 10.1 C 3.2 km/h
50 02-12-2018 04:05:00 10.1 C 8.23 g/m*3 9.48 C 6.4 km/h
Sensor: Nr:Datum:Temp:Abs-Feuchte:Windchill:Wind:
Aussen-T/F 51 02-12-2018 04:10:00 10.1 C 8.32 g/m*3 10.1 C 1.6 km/h
52 02-12-2018 04:15:00 9.9 C 8.31 g/m*3 9.9 C 1.6 km/h
53 02-12-2018 04:20:00 9.8 C 8.35 g/m*3 9.8 C 4.8 km/h
54 02-12-2018 04:25:00 9.6 C 8.34 g/m*3 9.6 C 0 km/h
55 02-12-2018 04:30:00 9.5 C 8.28 g/m*3 9.5 C 0 km/h
56 02-12-2018 04:35:00 9.4 C 8.32 g/m*3 9.4 C 0 km/h
57 02-12-2018 04:40:00 9.3 C 8.27 g/m*3 9.3 C 0 km/h
58 02-12-2018 04:45:00 9.2 C 8.3 g/m*3 9.2 C 0 km/h
59 02-12-2018 04:50:00 9.1 C 8.25 g/m*3 9.1 C 0 km/h
60 02-12-2018 04:55:00 9 C 8.2 g/m*3 9 C 0 km/h
61 02-12-2018 05:00:00 8.9 C 8.23 g/m*3 8.9 C 0 km/h
62 02-12-2018 05:05:00 8.9 C 8.23 g/m*3 8.9 C 0 km/h
63 02-12-2018 05:10:00 8.8 C 8.18 g/m*3 8.8 C 0 km/h
64 02-12-2018 05:15:00 8.8 C 8.18 g/m*3 8.8 C 0 km/h
65 02-12-2018 05:20:00 8.8 C 8.18 g/m*3 8.8 C 1.6 km/h
66 02-12-2018 05:25:00 8.7 C 8.22 g/m*3 8.7 C 1.6 km/h
67 02-12-2018 05:30:00 8.7 C 8.22 g/m*3 8.7 C 0 km/h
68 02-12-2018 05:35:00 8.7 C 8.22 g/m*3 8.7 C 3.2 km/h
69 02-12-2018 05:40:00 8.7 C 8.22 g/m*3 8.7 C 3.2 km/h
70 02-12-2018 05:45:00 8.7 C 8.22 g/m*3 8.7 C 0 km/h
71 02-12-2018 05:50:00 8.7 C 8.22 g/m*3 8.7 C 1.6 km/h
72 02-12-2018 05:55:00 8.7 C 8.22 g/m*3 8.7 C 0 km/h
73 02-12-2018 06:00:00 8.7 C 8.22 g/m*3 8.7 C 0 km/h
74 02-12-2018 06:05:00 8.7 C 8.22 g/m*3 8.7 C 0 km/h
75 02-12-2018 06:10:00 8.7 C 8.22 g/m*3 8.7 C 0 km/h
Sensor: Nr:Datum:Temp:Abs-Feuchte:Windchill:Wind:
Aussen-T/F 76 02-12-2018 06:15:00 8.7 C 8.3 g/m*3 8.7 C 0 km/h
77 02-12-2018 06:20:00 8.7 C 8.3 g/m*3 8.7 C 1.6 km/h
78 02-12-2018 06:25:00 8.7 C 8.3 g/m*3 8.7 C 0 km/h
79 02-12-2018 06:30:00 8.7 C 8.3 g/m*3 8.7 C 1.6 km/h
80 02-12-2018 06:35:00 8.8 C 8.36 g/m*3 8.8 C 1.6 km/h
81 02-12-2018 06:40:00 8.8 C 8.36 g/m*3 8.8 C 0 km/h
82 02-12-2018 06:45:00 8.8 C 8.36 g/m*3 8.8 C 0 km/h
83 02-12-2018 06:50:00 8.8 C 8.36 g/m*3 8.8 C 0 km/h
84 02-12-2018 06:55:00 8.8 C 8.36 g/m*3 7.98 C 6.4 km/h
85 02-12-2018 07:00:00 8.8 C 8.36 g/m*3 8.8 C 1.6 km/h
86 02-12-2018 07:05:00 8.9 C 8.41 g/m*3 8.9 C 0 km/h
87 02-12-2018 07:10:00 8.9 C 8.41 g/m*3 8.9 C 0 km/h
88 02-12-2018 07:15:00 8.9 C 8.41 g/m*3 8.1 C 6.4 km/h
89 02-12-2018 07:20:00 8.9 C 8.41 g/m*3 8.9 C 0 km/h
90 02-12-2018 07:25:00 8.9 C 8.41 g/m*3 8.9 C 0 km/h
91 02-12-2018 07:30:00 8.9 C 8.41 g/m*3 8.9 C 0 km/h
92 02-12-2018 07:35:00 9 C 8.46 g/m*3 9 C 0 km/h
93 02-12-2018 07:40:00 9 C 8.46 g/m*3 9 C 0 km/h
94 02-12-2018 07:45:00 9 C 8.46 g/m*3 9 C 0 km/h
95 02-12-2018 07:50:00 9.1 C 8.52 g/m*3 9.1 C 0 km/h
96 02-12-2018 07:55:00 9.1 C 8.52 g/m*3 9.1 C 1.6 km/h
97 02-12-2018 08:00:00 9.1 C 8.52 g/m*3 9.1 C 0 km/h
98 02-12-2018 08:05:00 9.1 C 8.52 g/m*3 9.1 C 1.6 km/h
99 02-12-2018 08:10:00 9.1 C 8.61 g/m*3 9.1 C 0 km/h
100 02-12-2018 08:15:00 9.1 C 8.61 g/m*3 9.1 C 0 km/h
Sensor: Nr:Datum:Temp:Abs-Feuchte:Windchill:Wind:
Aussen-T/F 101 02-12-2018 08:20:00 9.1 C 8.61 g/m*3 9.1 C 0 km/h
102 02-12-2018 08:25:00 9.1 C 8.61 g/m*3 9.1 C 0 km/h
103 02-12-2018 08:30:00 9.1 C 8.52 g/m*3 9.1 C 0 km/h
104 02-12-2018 08:35:00 9.2 C 8.66 g/m*3 9.2 C 0 km/h
105 02-12-2018 08:40:00 9.2 C 8.66 g/m*3 9.2 C 3.2 km/h
106 02-12-2018 08:45:00 9.2 C 8.66 g/m*3 9.2 C 0 km/h
107 02-12-2018 08:50:00 9.2 C 8.66 g/m*3 9.2 C 3.2 km/h
108 02-12-2018 08:55:00 9.3 C 8.72 g/m*3 9.3 C 0 km/h
109 02-12-2018 09:00:00 9.4 C 8.77 g/m*3 9.4 C 0 km/h
110 02-12-2018 09:05:00 9.4 C 8.77 g/m*3 9.4 C 0 km/h
111 02-12-2018 09:10:00 9.4 C 8.77 g/m*3 9.4 C 4.8 km/h
112 02-12-2018 09:15:00 9.5 C 8.83 g/m*3 9.5 C 1.6 km/h
113 02-12-2018 09:20:00 9.5 C 8.83 g/m*3 9.5 C 3.2 km/h
114 02-12-2018 09:25:00 9.6 C 8.89 g/m*3 9.6 C 3.2 km/h
115 02-12-2018 09:30:00 9.6 C 8.89 g/m*3 8.52 C 8.1 km/h
116 02-12-2018 09:35:00 9.7 C 8.94 g/m*3 9.7 C 4.8 km/h
117 02-12-2018 09:40:00 9.8 C 9 g/m*3 9.8 C 3.2 km/h
118 02-12-2018 09:45:00 9.8 C 9 g/m*3 8.75 C 8.1 km/h
119 02-12-2018 09:50:00 9.8 C 9 g/m*3 9.8 C 3.2 km/h
120 02-12-2018 09:55:00 9.8 C 9 g/m*3 9.8 C 1.6 km/h
121 02-12-2018 10:00:00 9.9 C 9.06 g/m*3 8.87 C 8.1 km/h
122 02-12-2018 10:05:00 9.9 C 9.06 g/m*3 8.3 C 11.3 km/h
123 02-12-2018 10:10:00 9.9 C 9.06 g/m*3 9.9 C 4.8 km/h
124 02-12-2018 10:15:00 9.9 C 9.06 g/m*3 8.06 C 12.9 km/h
125 02-12-2018 10:20:00 10 C 9.11 g/m*3 8.42 C 11.3 km/h
Sensor: Nr:Datum:Temp:Abs-Feuchte:Windchill:Wind:
Aussen-T/F 126 02-12-2018 10:25:00 10.1 C 9.17 g/m*3 9.1 C 8.1 km/h
127 02-12-2018 10:30:00 10.1 C 9.17 g/m*3 8.8 C 9.7 km/h
128 02-12-2018 10:35:00 10.2 C 9.14 g/m*3 8.43 C 12.9 km/h
129 02-12-2018 10:40:00 10.2 C 9.14 g/m*3 8.43 C 12.9 km/h
130 02-12-2018 10:45:00 10.3 C 9.19 g/m*3 8.16 C 16.1 km/h
131 02-12-2018 10:50:00 10.3 C 9.19 g/m*3 8.16 C 16.1 km/h
132 02-12-2018 10:55:00 10.4 C 9.25 g/m*3 9.16 C 9.7 km/h
133 02-12-2018 11:00:00 10.4 C 9.25 g/m*3 9.16 C 9.7 km/h
134 02-12-2018 11:05:00 10.5 C 9.31 g/m*3 8.59 C 14.5 km/h
135 02-12-2018 11:10:00 10.6 C 9.37 g/m*3 8.92 C 12.9 km/h
136 02-12-2018 11:15:00 10.7 C 9.43 g/m*3 10.18 C 6.4 km/h
137 02-12-2018 11:20:00 10.7 C 9.43 g/m*3 9.26 C 11.3 km/h
138 02-12-2018 11:25:00 10.8 C 9.49 g/m*3 9.16 C 12.9 km/h
139 02-12-2018 11:30:00 10.9 C 9.55 g/m*3 9.76 C 9.7 km/h
140 02-12-2018 11:35:00 11.1 C 9.67 g/m*3 11.1 C 12.9 km/h
141 02-12-2018 11:40:00 11.2 C 9.63 g/m*3 11.2 C 11.3 km/h
142 02-12-2018 11:45:00 11.2 C 9.63 g/m*3 11.2 C 17.7 km/h
143 02-12-2018 11:50:00 11.3 C 9.69 g/m*3 11.3 C 17.7 km/h
144 02-12-2018 11:55:00 11.4 C 9.75 g/m*3 11.4 C 14.5 km/h
145 02-12-2018 12:00:00 11.5 C 9.81 g/m*3 11.5 C 12.9 km/h
146 02-12-2018 12:05:00 11.6 C 9.87 g/m*3 11.6 C 12.9 km/h
147 02-12-2018 12:10:00 11.7 C 9.94 g/m*3 11.7 C 16.1 km/h
148 02-12-2018 12:15:00 11.8 C 10 g/m*3 11.8 C 16.1 km/h
149 02-12-2018 12:20:00 11.9 C 9.96 g/m*3 11.9 C 17.7 km/h
150 02-12-2018 12:25:00 12.1 C 10.08 g/m*3 12.1 C 12.9 km/h
Sensor: Nr:Datum:Temp:Abs-Feuchte:Windchill:Wind:
Aussen-T/F 151 02-12-2018 12:30:00 12.3 C 10.21 g/m*3 12.3 C 16.1 km/h
152 02-12-2018 12:35:00 12.4 C 10.27 g/m*3 12.4 C 6.4 km/h
153 02-12-2018 12:40:00 12.5 C 10.22 g/m*3 12.5 C 11.3 km/h
154 02-12-2018 12:45:00 12.6 C 10.29 g/m*3 12.6 C 11.3 km/h
155 02-12-2018 12:50:00 12.7 C 10.35 g/m*3 12.7 C 14.5 km/h
156 02-12-2018 12:55:00 12.8 C 10.42 g/m*3 12.8 C 14.5 km/h
157 02-12-2018 13:00:00 12.8 C 10.3 g/m*3 12.8 C 16.1 km/h
158 02-12-2018 13:05:00 12.8 C 10.3 g/m*3 12.8 C 12.9 km/h
159 02-12-2018 13:10:00 12.9 C 10.37 g/m*3 12.9 C 19.3 km/h
160 02-12-2018 13:15:00 13.1 C 10.5 g/m*3 13.1 C 19.3 km/h
161 02-12-2018 13:20:00 13.1 C 10.5 g/m*3 13.1 C 19.3 km/h
162 02-12-2018 13:25:00 13.2 C 10.56 g/m*3 13.2 C 12.9 km/h
163 02-12-2018 13:30:00 13.2 C 10.45 g/m*3 13.2 C 16.1 km/h
164 02-12-2018 13:35:00 13.2 C 10.45 g/m*3 13.2 C 17.7 km/h
165 02-12-2018 13:40:00 13.2 C 10.45 g/m*3 13.2 C 14.5 km/h
166 02-12-2018 13:45:00 13.2 C 10.45 g/m*3 13.2 C 16.1 km/h
167 02-12-2018 13:50:00 13.2 C 10.45 g/m*3 13.2 C 11.3 km/h
168 02-12-2018 13:55:00 13.3 C 10.63 g/m*3 13.3 C 17.7 km/h
169 02-12-2018 14:00:00 13.3 C 10.63 g/m*3 13.3 C 14.5 km/h
170 02-12-2018 14:05:00 13.3 C 10.63 g/m*3 13.3 C 14.5 km/h
171 02-12-2018 14:10:00 13.3 C 10.63 g/m*3 13.3 C 17.7 km/h
172 02-12-2018 14:15:00 13.3 C 10.63 g/m*3 13.3 C 11.3 km/h
173 02-12-2018 14:20:00 13.3 C 10.63 g/m*3 13.3 C 11.3 km/h
174 02-12-2018 14:25:00 13.4 C 10.69 g/m*3 13.4 C 11.3 km/h
175 02-12-2018 14:30:00 13.4 C 10.69 g/m*3 13.4 C 12.9 km/h
Sensor: Nr:Datum:Temp:Abs-Feuchte:Windchill:Wind:
Aussen-T/F 176 02-12-2018 14:35:00 13.4 C 10.69 g/m*3 13.4 C 16.1 km/h
177 02-12-2018 14:40:00 13.5 C 10.76 g/m*3 13.5 C 11.3 km/h
178 02-12-2018 14:45:00 13.5 C 10.76 g/m*3 13.5 C 17.7 km/h
179 02-12-2018 14:50:00 13.5 C 10.76 g/m*3 13.5 C 6.4 km/h
180 02-12-2018 14:55:00 13.4 C 10.69 g/m*3 13.4 C 8.1 km/h
181 02-12-2018 15:00:00 13.4 C 10.69 g/m*3 13.4 C 14.5 km/h
182 02-12-2018 15:05:00 13.4 C 10.69 g/m*3 13.4 C 14.5 km/h
183 02-12-2018 15:10:00 13.4 C 10.69 g/m*3 13.4 C 4.8 km/h
184 02-12-2018 15:15:00 13.4 C 10.69 g/m*3 13.4 C 6.4 km/h
185 02-12-2018 15:20:00 13.5 C 10.76 g/m*3 13.5 C 9.7 km/h
186 02-12-2018 15:25:00 13.6 C 10.83 g/m*3 13.6 C 12.9 km/h
187 02-12-2018 15:30:00 13.7 C 10.89 g/m*3 13.7 C 11.3 km/h
188 02-12-2018 15:35:00 13.7 C 10.89 g/m*3 13.7 C 9.7 km/h
189 02-12-2018 15:40:00 13.8 C 10.96 g/m*3 13.8 C 11.3 km/h
190 02-12-2018 15:45:00 13.7 C 10.89 g/m*3 13.7 C 6.4 km/h
191 02-12-2018 15:50:00 13.7 C 10.89 g/m*3 13.7 C 8.1 km/h
192 02-12-2018 15:55:00 13.7 C 10.89 g/m*3 13.7 C 8.1 km/h
193 02-12-2018 16:00:00 13.7 C 10.89 g/m*3 13.7 C 12.9 km/h
194 02-12-2018 16:05:00 13.7 C 10.89 g/m*3 13.7 C 14.5 km/h
195 02-12-2018 16:10:00 13.7 C 11.01 g/m*3 13.7 C 12.9 km/h
196 02-12-2018 16:15:00 13.6 C 10.95 g/m*3 13.6 C 11.3 km/h
197 02-12-2018 16:20:00 13.5 C 10.76 g/m*3 13.5 C 4.8 km/h
198 02-12-2018 16:25:00 13.3 C 10.63 g/m*3 13.3 C 1.6 km/h
199 02-12-2018 16:30:00 13.2 C 10.56 g/m*3 13.2 C 1.6 km/h
200 02-12-2018 16:35:00 12.9 C 10.48 g/m*3 12.9 C 4.8 km/h
Sensor: Nr:Datum:Temp:Abs-Feuchte:Windchill:Wind:
Aussen-T/F 201 02-12-2018 16:40:00 12.8 C 10.42 g/m*3 12.8 C 3.2 km/h
202 02-12-2018 16:45:00 12.8 C 10.53 g/m*3 12.8 C 1.6 km/h
203 02-12-2018 16:50:00 12.9 C 10.59 g/m*3 12.9 C 1.6 km/h
204 02-12-2018 16:55:00 12.9 C 10.59 g/m*3 12.9 C 3.2 km/h
205 02-12-2018 17:00:00 12.8 C 10.53 g/m*3 12.8 C 8.1 km/h
206 02-12-2018 17:05:00 12.8 C 10.53 g/m*3 12.8 C 1.6 km/h
207 02-12-2018 17:10:00 12.8 C 10.53 g/m*3 12.8 C 3.2 km/h
208 02-12-2018 17:15:00 12.8 C 10.64 g/m*3 12.8 C 6.4 km/h
209 02-12-2018 17:20:00 12.9 C 10.71 g/m*3 12.9 C 11.3 km/h
210 02-12-2018 17:25:00 13.1 C 10.84 g/m*3 13.1 C 3.2 km/h
211 02-12-2018 17:30:00 13.1 C 10.84 g/m*3 13.1 C 6.4 km/h
212 02-12-2018 17:35:00 13.2 C 10.79 g/m*3 13.2 C 8.1 km/h
213 02-12-2018 17:40:00 13.3 C 10.86 g/m*3 13.3 C 8.1 km/h
214 02-12-2018 17:45:00 13.3 C 10.86 g/m*3 13.3 C 6.4 km/h
215 02-12-2018 17:50:00 13.3 C 10.86 g/m*3 13.3 C 11.3 km/h
216 02-12-2018 17:55:00 13.4 C 10.81 g/m*3 13.4 C 14.5 km/h
217 02-12-2018 18:00:00 13.4 C 10.81 g/m*3 13.4 C 4.8 km/h
218 02-12-2018 18:05:00 13.4 C 10.81 g/m*3 13.4 C 6.4 km/h
219 02-12-2018 18:10:00 13.5 C 10.88 g/m*3 13.5 C 9.7 km/h
220 02-12-2018 18:15:00 13.5 C 10.76 g/m*3 13.5 C 9.7 km/h
221 02-12-2018 18:20:00 13.6 C 10.95 g/m*3 13.6 C 11.3 km/h
222 02-12-2018 18:25:00 13.7 C 10.89 g/m*3 13.7 C 11.3 km/h
223 02-12-2018 18:30:00 13.8 C 10.96 g/m*3 13.8 C 12.9 km/h
224 02-12-2018 18:35:00 13.9 C 11.03 g/m*3 13.9 C 12.9 km/h
225 02-12-2018 18:40:00 13.9 C 10.91 g/m*3 13.9 C 11.3 km/h
Sensor: Nr:Datum:Temp:Abs-Feuchte:Windchill:Wind:
Aussen-T/F 226 02-12-2018 18:45:00 13.9 C 10.91 g/m*3 13.9 C 9.7 km/h
227 02-12-2018 18:50:00 13.9 C 10.91 g/m*3 13.9 C 9.7 km/h
228 02-12-2018 18:55:00 14 C 11.1 g/m*3 14 C 11.3 km/h
229 02-12-2018 19:00:00 14 C 11.1 g/m*3 14 C 11.3 km/h
230 02-12-2018 19:05:00 14 C 11.1 g/m*3 14 C 4.8 km/h
231 02-12-2018 19:10:00 13.9 C 11.03 g/m*3 13.9 C 6.4 km/h
232 02-12-2018 19:15:00 13.8 C 10.96 g/m*3 13.8 C 3.2 km/h
233 02-12-2018 19:20:00 13.7 C 11.01 g/m*3 13.7 C 6.4 km/h
234 02-12-2018 19:25:00 13.6 C 10.95 g/m*3 13.6 C 6.4 km/h
235 02-12-2018 19:30:00 13.6 C 10.95 g/m*3 13.6 C 9.7 km/h
236 02-12-2018 19:35:00 13.6 C 10.95 g/m*3 13.6 C 6.4 km/h
237 02-12-2018 19:40:00 13.6 C 11.06 g/m*3 13.6 C 9.7 km/h
238 02-12-2018 19:45:00 13.6 C 10.95 g/m*3 13.6 C 6.4 km/h
239 02-12-2018 19:50:00 13.6 C 10.95 g/m*3 13.6 C 3.2 km/h
240 02-12-2018 19:55:00 13.6 C 10.95 g/m*3 13.6 C 9.7 km/h
241 02-12-2018 20:00:00 13.5 C 10.88 g/m*3 13.5 C 1.6 km/h
242 02-12-2018 20:05:00 13.4 C 10.81 g/m*3 13.4 C 1.6 km/h
243 02-12-2018 20:10:00 13.2 C 10.68 g/m*3 13.2 C 1.6 km/h
244 02-12-2018 20:15:00 13.1 C 10.61 g/m*3 13.1 C 4.8 km/h
245 02-12-2018 20:20:00 13 C 10.55 g/m*3 13 C 0 km/h
246 02-12-2018 20:25:00 12.9 C 10.48 g/m*3 12.9 C 1.6 km/h
247 02-12-2018 20:30:00 12.9 C 10.59 g/m*3 12.9 C 0 km/h
248 02-12-2018 20:35:00 12.9 C 10.59 g/m*3 12.9 C 0 km/h
249 02-12-2018 20:40:00 12.9 C 10.59 g/m*3 12.9 C 0 km/h
250 02-12-2018 20:45:00 12.8 C 10.53 g/m*3 12.8 C 0 km/h
Sensor: Nr:Datum:Temp:Abs-Feuchte:Windchill:Wind:
Aussen-T/F 251 02-12-2018 20:50:00 12.8 C 10.53 g/m*3 12.8 C 0 km/h
252 02-12-2018 20:55:00 12.7 C 10.46 g/m*3 12.7 C 0 km/h
253 02-12-2018 21:00:00 12.7 C 10.46 g/m*3 12.7 C 0 km/h
254 02-12-2018 21:05:00 12.7 C 10.46 g/m*3 12.7 C 1.6 km/h
255 02-12-2018 21:10:00 12.8 C 10.64 g/m*3 12.8 C 0 km/h
256 02-12-2018 21:15:00 12.8 C 10.64 g/m*3 12.8 C 0 km/h
257 02-12-2018 21:20:00 12.8 C 10.64 g/m*3 12.8 C 4.8 km/h
258 02-12-2018 21:25:00 12.8 C 10.64 g/m*3 12.8 C 4.8 km/h
259 02-12-2018 21:30:00 12.9 C 10.71 g/m*3 12.9 C 1.6 km/h
260 02-12-2018 21:35:00 12.9 C 10.71 g/m*3 12.9 C 3.2 km/h
261 02-12-2018 21:40:00 12.8 C 10.64 g/m*3 12.8 C 0 km/h
262 02-12-2018 21:45:00 12.8 C 10.64 g/m*3 12.8 C 0 km/h
263 02-12-2018 21:50:00 12.8 C 10.64 g/m*3 12.8 C 1.6 km/h
264 02-12-2018 21:55:00 12.8 C 10.64 g/m*3 12.8 C 0 km/h
265 02-12-2018 22:00:00 12.7 C 10.58 g/m*3 12.7 C 0 km/h
266 02-12-2018 22:05:00 12.6 C 10.51 g/m*3 12.6 C 0 km/h
267 02-12-2018 22:10:00 12.6 C 10.51 g/m*3 12.6 C 0 km/h
268 02-12-2018 22:15:00 12.5 C 10.44 g/m*3 12.5 C 0 km/h
269 02-12-2018 22:20:00 12.5 C 10.44 g/m*3 12.5 C 0 km/h
270 02-12-2018 22:25:00 12.5 C 10.44 g/m*3 12.5 C 0 km/h
271 02-12-2018 22:30:00 12.4 C 10.38 g/m*3 12.4 C 0 km/h
272 02-12-2018 22:35:00 12.4 C 10.38 g/m*3 12.4 C 0 km/h
273 02-12-2018 22:40:00 12.4 C 10.38 g/m*3 12.4 C 0 km/h
274 02-12-2018 22:45:00 12.4 C 10.49 g/m*3 12.4 C 0 km/h
275 02-12-2018 22:50:00 12.4 C 10.38 g/m*3 12.4 C 0 km/h
Sensor: Nr:Datum:Temp:Abs-Feuchte:Windchill:Wind:
Aussen-T/F 276 02-12-2018 22:55:00 12.4 C 10.38 g/m*3 12.4 C 1.6 km/h
277 02-12-2018 23:00:00 12.3 C 10.42 g/m*3 12.3 C 1.6 km/h
278 02-12-2018 23:05:00 12.3 C 10.42 g/m*3 12.3 C 0 km/h
279 02-12-2018 23:10:00 12.3 C 10.42 g/m*3 12.3 C 1.6 km/h
280 02-12-2018 23:15:00 12.3 C 10.42 g/m*3 12.3 C 0 km/h
281 02-12-2018 23:20:00 12.3 C 10.42 g/m*3 12.3 C 0 km/h
282 02-12-2018 23:25:00 12.4 C 10.49 g/m*3 12.4 C 0 km/h
283 02-12-2018 23:30:00 12.4 C 10.49 g/m*3 12.4 C 0 km/h
284 02-12-2018 23:35:00 12.4 C 10.49 g/m*3 12.4 C 0 km/h
285 02-12-2018 23:40:00 12.5 C 10.55 g/m*3 12.5 C 0 km/h
286 02-12-2018 23:45:00 12.7 C 10.69 g/m*3 12.7 C 8.1 km/h
287 02-12-2018 23:50:00 12.8 C 10.87 g/m*3 12.8 C 4.8 km/h
288 02-12-2018 23:55:00 12.9 C 10.93 g/m*3 12.9 C 8.1 km/h
289 03-12-2018 00:00:00 13.1 C 11.07 g/m*3 13.1 C 8.1 km/h
290 03-12-2018 00:05:00 13.1 C 11.07 g/m*3 13.1 C 11.3 km/h
291 03-12-2018 00:10:00 13.1 C 10.95 g/m*3 13.1 C 14.5 km/h
292 03-12-2018 00:15:00 12.9 C 10.82 g/m*3 12.9 C 16.1 km/h
293 03-12-2018 00:20:00 12.9 C 10.82 g/m*3 12.9 C 16.1 km/h
294 03-12-2018 00:25:00 12.8 C 10.75 g/m*3 12.8 C 8.1 km/h
295 03-12-2018 00:30:00 12.8 C 10.75 g/m*3 12.8 C 9.7 km/h
296 03-12-2018 00:35:00 12.8 C 10.75 g/m*3 12.8 C 9.7 km/h
297 03-12-2018 00:40:00 12.8 C 10.75 g/m*3 12.8 C 8.1 km/h
298 03-12-2018 00:45:00 12.7 C 10.69 g/m*3 12.7 C 11.3 km/h
299 03-12-2018 00:50:00 12.7 C 10.69 g/m*3 12.7 C 9.7 km/h
300 03-12-2018 00:55:00 12.7 C 10.69 g/m*3 12.7 C 8.1 km/h
Sensor: Nr:Datum:Temp:Abs-Feuchte:Windchill:Wind:
Aussen-T/F 301 03-12-2018 01:00:00 12.6 C 10.62 g/m*3 12.6 C 8.1 km/h
302 03-12-2018 01:05:00 12.5 C 10.55 g/m*3 12.5 C 8.1 km/h
303 03-12-2018 01:10:00 12.5 C 10.55 g/m*3 12.5 C 11.3 km/h
304 03-12-2018 01:15:00 12.4 C 10.49 g/m*3 12.4 C 6.4 km/h
305 03-12-2018 01:20:00 12.4 C 10.49 g/m*3 12.4 C 14.5 km/h
306 03-12-2018 01:25:00 12.4 C 10.49 g/m*3 12.4 C 9.7 km/h
307 03-12-2018 01:30:00 12.4 C 10.49 g/m*3 12.4 C 6.4 km/h
308 03-12-2018 01:35:00 12.4 C 10.38 g/m*3 12.4 C 8.1 km/h
309 03-12-2018 01:40:00 12.4 C 10.38 g/m*3 12.4 C 4.8 km/h
310 03-12-2018 01:45:00 12.3 C 10.32 g/m*3 12.3 C 3.2 km/h
311 03-12-2018 01:50:00 12.3 C 10.32 g/m*3 12.3 C 4.8 km/h
312 03-12-2018 01:55:00 12.3 C 10.32 g/m*3 12.3 C 9.7 km/h
313 03-12-2018 02:00:00 12.2 C 10.25 g/m*3 12.2 C 4.8 km/h
314 03-12-2018 02:05:00 12.1 C 10.19 g/m*3 12.1 C 1.6 km/h
315 03-12-2018 02:10:00 12.1 C 10.19 g/m*3 12.1 C 4.8 km/h
316 03-12-2018 02:15:00 12 C 10.12 g/m*3 12 C 3.2 km/h
317 03-12-2018 02:20:00 12.1 C 10.29 g/m*3 12.1 C 12.9 km/h
318 03-12-2018 02:25:00 12.2 C 10.36 g/m*3 12.2 C 9.7 km/h
319 03-12-2018 02:30:00 12.3 C 10.42 g/m*3 12.3 C 1.6 km/h
320 03-12-2018 02:35:00 12.2 C 10.25 g/m*3 12.2 C 6.4 km/h
321 03-12-2018 02:40:00 12.2 C 10.25 g/m*3 12.2 C 8.1 km/h
322 03-12-2018 02:45:00 12.1 C 10.19 g/m*3 12.1 C 3.2 km/h
323 03-12-2018 02:50:00 11.9 C 10.06 g/m*3 11.9 C 3.2 km/h
324 03-12-2018 02:55:00 11.8 C 10 g/m*3 11.8 C 0 km/h
325 03-12-2018 03:00:00 11.7 C 9.94 g/m*3 11.7 C 4.8 km/h
Sensor: Nr:Datum:Temp:Abs-Feuchte:Windchill:Wind:
Aussen-T/F 326 03-12-2018 03:05:00 11.7 C 9.94 g/m*3 11.7 C 3.2 km/h
327 03-12-2018 03:10:00 11.7 C 10.04 g/m*3 11.7 C 3.2 km/h
328 03-12-2018 03:15:00 11.7 C 10.04 g/m*3 11.7 C 3.2 km/h
329 03-12-2018 03:20:00 11.8 C 10.1 g/m*3 11.8 C 4.8 km/h
330 03-12-2018 03:25:00 11.8 C 10.1 g/m*3 11.8 C 3.2 km/h
331 03-12-2018 03:30:00 11.8 C 10.1 g/m*3 11.8 C 3.2 km/h
332 03-12-2018 03:35:00 11.7 C 10.04 g/m*3 11.7 C 4.8 km/h
333 03-12-2018 03:40:00 11.8 C 10.1 g/m*3 11.8 C 4.8 km/h
334 03-12-2018 03:45:00 11.8 C 10.1 g/m*3 11.8 C 11.3 km/h
335 03-12-2018 03:50:00 11.9 C 10.17 g/m*3 11.9 C 3.2 km/h
336 03-12-2018 03:55:00 12 C 10.23 g/m*3 12 C 9.7 km/h
337 03-12-2018 04:00:00 12.1 C 10.4 g/m*3 12.1 C 11.3 km/h
338 03-12-2018 04:05:00 12.2 C 10.36 g/m*3 12.2 C 4.8 km/h
339 03-12-2018 04:10:00 12.2 C 10.36 g/m*3 12.2 C 4.8 km/h
340 03-12-2018 04:15:00 12.2 C 10.36 g/m*3 12.2 C 3.2 km/h
341 03-12-2018 04:20:00 12.3 C 10.42 g/m*3 12.3 C 12.9 km/h
342 03-12-2018 04:25:00 12.4 C 10.49 g/m*3 12.4 C 8.1 km/h
343 03-12-2018 04:30:00 12.4 C 10.49 g/m*3 12.4 C 8.1 km/h
344 03-12-2018 04:35:00 12.5 C 10.55 g/m*3 12.5 C 9.7 km/h
345 03-12-2018 04:40:00 12.6 C 10.62 g/m*3 12.6 C 4.8 km/h
346 03-12-2018 04:45:00 12.6 C 10.62 g/m*3 12.6 C 4.8 km/h
347 03-12-2018 04:50:00 12.6 C 10.62 g/m*3 12.6 C 4.8 km/h
348 03-12-2018 04:55:00 12.6 C 10.62 g/m*3 12.6 C 4.8 km/h
349 03-12-2018 05:00:00 12.6 C 10.62 g/m*3 12.6 C 6.4 km/h
350 03-12-2018 05:05:00 12.5 C 10.55 g/m*3 12.5 C 1.6 km/h
Sensor: Nr:Datum:Temp:Abs-Feuchte:Windchill:Wind:
Aussen-T/F 351 03-12-2018 05:10:00 12.5 C 10.55 g/m*3 12.5 C 0 km/h
352 03-12-2018 05:15:00 12.4 C 10.49 g/m*3 12.4 C 3.2 km/h
353 03-12-2018 05:20:00 12.4 C 10.49 g/m*3 12.4 C 6.4 km/h
354 03-12-2018 05:25:00 12.3 C 10.42 g/m*3 12.3 C 4.8 km/h
355 03-12-2018 05:30:00 12.3 C 10.42 g/m*3 12.3 C 6.4 km/h
356 03-12-2018 05:35:00 12.3 C 10.42 g/m*3 12.3 C 1.6 km/h
357 03-12-2018 05:40:00 12.2 C 10.36 g/m*3 12.2 C 3.2 km/h
358 03-12-2018 05:45:00 12.2 C 10.36 g/m*3 12.2 C 1.6 km/h
359 03-12-2018 05:50:00 12.1 C 10.29 g/m*3 12.1 C 1.6 km/h
360 03-12-2018 05:55:00 12.1 C 10.29 g/m*3 12.1 C 1.6 km/h
361 03-12-2018 06:00:00 12 C 10.23 g/m*3 12 C 0 km/h
362 03-12-2018 06:05:00 11.9 C 10.17 g/m*3 11.9 C 4.8 km/h
363 03-12-2018 06:10:00 11.9 C 10.17 g/m*3 11.9 C 6.4 km/h
364 03-12-2018 06:15:00 11.8 C 10.1 g/m*3 11.8 C 4.8 km/h
365 03-12-2018 06:20:00 11.8 C 10.1 g/m*3 11.8 C 4.8 km/h
366 03-12-2018 06:25:00 11.8 C 10.1 g/m*3 11.8 C 6.4 km/h
367 03-12-2018 06:30:00 11.8 C 10.1 g/m*3 11.8 C 3.2 km/h
368 03-12-2018 06:35:00 11.9 C 10.17 g/m*3 11.9 C 3.2 km/h
369 03-12-2018 06:40:00 11.9 C 10.27 g/m*3 11.9 C 6.4 km/h
370 03-12-2018 06:45:00 12.1 C 10.4 g/m*3 12.1 C 6.4 km/h
371 03-12-2018 06:50:00 12.1 C 10.4 g/m*3 12.1 C 8.1 km/h
372 03-12-2018 06:55:00 12.2 C 10.47 g/m*3 12.2 C 1.6 km/h
373 03-12-2018 07:00:00 12.2 C 10.47 g/m*3 12.2 C 1.6 km/h
374 03-12-2018 07:05:00 12.2 C 10.47 g/m*3 12.2 C 4.8 km/h
375 03-12-2018 07:10:00 12.2 C 10.47 g/m*3 12.2 C 3.2 km/h
Sensor: Nr:Datum:Temp:Abs-Feuchte:Windchill:Wind:
Aussen-T/F 376 03-12-2018 07:15:00 12.2 C 10.47 g/m*3 12.2 C 1.6 km/h
377 03-12-2018 07:20:00 12.2 C 10.47 g/m*3 12.2 C 1.6 km/h
378 03-12-2018 07:25:00 12.1 C 10.4 g/m*3 12.1 C 3.2 km/h
379 03-12-2018 07:30:00 11.9 C 10.17 g/m*3 11.9 C 1.6 km/h
380 03-12-2018 07:35:00 11.8 C 10.21 g/m*3 11.8 C 1.6 km/h
381 03-12-2018 07:40:00 11.8 C 10.21 g/m*3 11.8 C 4.8 km/h
382 03-12-2018 07:45:00 11.7 C 10.15 g/m*3 11.7 C 0 km/h
383 03-12-2018 07:50:00 11.7 C 10.15 g/m*3 11.7 C 8.1 km/h
384 03-12-2018 07:55:00 11.8 C 10.21 g/m*3 11.8 C 1.6 km/h
385 03-12-2018 08:00:00 11.8 C 10.21 g/m*3 11.8 C 4.8 km/h
386 03-12-2018 08:05:00 11.9 C 10.27 g/m*3 11.9 C 0 km/h
387 03-12-2018 08:10:00 11.9 C 10.27 g/m*3 11.9 C 4.8 km/h
388 03-12-2018 08:15:00 12 C 10.34 g/m*3 12 C 8.1 km/h
389 03-12-2018 08:20:00 12 C 10.34 g/m*3 12 C 6.4 km/h
390 03-12-2018 08:25:00 11.9 C 10.27 g/m*3 11.9 C 1.6 km/h
391 03-12-2018 08:30:00 11.8 C 10.21 g/m*3 11.8 C 1.6 km/h
392 03-12-2018 08:35:00 11.8 C 10.21 g/m*3 11.8 C 0 km/h
393 03-12-2018 08:40:00 11.7 C 10.15 g/m*3 11.7 C 1.6 km/h
394 03-12-2018 08:45:00 11.6 C 10.08 g/m*3 11.6 C 3.2 km/h
395 03-12-2018 08:50:00 11.8 C 10.21 g/m*3 11.8 C 9.7 km/h
396 03-12-2018 08:55:00 11.9 C 10.27 g/m*3 11.9 C 8.1 km/h
397 03-12-2018 09:00:00 11.9 C 10.27 g/m*3 11.9 C 6.4 km/h
398 03-12-2018 09:05:00 12 C 10.34 g/m*3 12 C 4.8 km/h
399 03-12-2018 09:10:00 12.1 C 10.4 g/m*3 12.1 C 12.9 km/h
400 03-12-2018 09:15:00 12.1 C 10.4 g/m*3 12.1 C 4.8 km/h
Sensor: Nr:Datum:Temp:Abs-Feuchte:Windchill:Wind:
Aussen-T/F 401 03-12-2018 09:20:00 12.2 C 10.47 g/m*3 12.2 C 4.8 km/h
402 03-12-2018 09:25:00 12.2 C 10.47 g/m*3 12.2 C 6.4 km/h
403 03-12-2018 09:30:00 12.2 C 10.47 g/m*3 12.2 C 4.8 km/h
404 03-12-2018 09:35:00 12.3 C 10.53 g/m*3 12.3 C 4.8 km/h
405 03-12-2018 09:40:00 12.3 C 10.53 g/m*3 12.3 C 6.4 km/h
406 03-12-2018 09:45:00 12.3 C 10.53 g/m*3 12.3 C 8.1 km/h
407 03-12-2018 09:50:00 12.3 C 10.53 g/m*3 12.3 C 3.2 km/h
408 03-12-2018 09:55:00 12.2 C 10.47 g/m*3 12.2 C 9.7 km/h
409 03-12-2018 10:00:00 12.2 C 10.47 g/m*3 12.2 C 11.3 km/h
410 03-12-2018 10:05:00 12.1 C 10.4 g/m*3 12.1 C 4.8 km/h
411 03-12-2018 10:10:00 12.1 C 10.4 g/m*3 12.1 C 1.6 km/h
412 03-12-2018 10:15:00 12.1 C 10.4 g/m*3 12.1 C 1.6 km/h
413 03-12-2018 10:20:00 12.2 C 10.47 g/m*3 12.2 C 0 km/h
414 03-12-2018 10:25:00 12.3 C 10.53 g/m*3 12.3 C 0 km/h
415 03-12-2018 10:30:00 12.3 C 10.53 g/m*3 12.3 C 0 km/h
416 03-12-2018 10:35:00 12.4 C 10.6 g/m*3 12.4 C 0 km/h
417 03-12-2018 10:40:00 12.4 C 10.6 g/m*3 12.4 C 0 km/h
418 03-12-2018 10:45:00 12.6 C 10.73 g/m*3 12.6 C 3.2 km/h
419 03-12-2018 10:50:00 12.6 C 10.73 g/m*3 12.6 C 1.6 km/h
420 03-12-2018 10:55:00 12.7 C 10.8 g/m*3 12.7 C 3.2 km/h
421 03-12-2018 11:00:00 12.8 C 10.87 g/m*3 12.8 C 3.2 km/h
422 03-12-2018 11:05:00 12.8 C 10.87 g/m*3 12.8 C 1.6 km/h
423 03-12-2018 11:10:00 12.8 C 10.87 g/m*3 12.8 C 3.2 km/h
424 03-12-2018 11:15:00 12.8 C 10.87 g/m*3 12.8 C 12.9 km/h
425 03-12-2018 11:20:00 12.8 C 10.87 g/m*3 12.8 C 4.8 km/h
Sensor: Nr:Datum:Temp:Abs-Feuchte:Windchill:Wind:
Aussen-T/F 426 03-12-2018 11:25:00 12.8 C 10.87 g/m*3 12.8 C 4.8 km/h
427 03-12-2018 11:30:00 12.9 C 10.93 g/m*3 12.9 C 3.2 km/h
428 03-12-2018 11:35:00 12.9 C 10.93 g/m*3 12.9 C 8.1 km/h
429 03-12-2018 11:40:00 12.9 C 10.93 g/m*3 12.9 C 6.4 km/h
430 03-12-2018 11:45:00 12.8 C 10.87 g/m*3 12.8 C 11.3 km/h
431 03-12-2018 11:50:00 12.8 C 10.87 g/m*3 12.8 C 6.4 km/h
432 03-12-2018 11:55:00 12.8 C 10.87 g/m*3 12.8 C 0 km/h
433 03-12-2018 12:00:00 12.9 C 10.93 g/m*3 12.9 C 3.2 km/h
434 03-12-2018 12:05:00 12.9 C 10.93 g/m*3 12.9 C 3.2 km/h
435 03-12-2018 12:10:00 12.9 C 10.93 g/m*3 12.9 C 3.2 km/h
436 03-12-2018 12:15:00 12.9 C 10.93 g/m*3 12.9 C 4.8 km/h
437 03-12-2018 12:20:00 12.9 C 10.93 g/m*3 12.9 C 6.4 km/h
438 03-12-2018 12:25:00 12.9 C 10.82 g/m*3 12.9 C 9.7 km/h
439 03-12-2018 12:30:00 12.9 C 10.82 g/m*3 12.9 C 6.4 km/h
440 03-12-2018 12:35:00 12.9 C 10.82 g/m*3 12.9 C 9.7 km/h
441 03-12-2018 12:40:00 12.9 C 10.82 g/m*3 12.9 C 9.7 km/h
442 03-12-2018 12:45:00 12.8 C 10.64 g/m*3 12.8 C 11.3 km/h
443 03-12-2018 12:50:00 12.8 C 10.64 g/m*3 12.8 C 9.7 km/h
444 03-12-2018 12:55:00 12.8 C 10.64 g/m*3 12.8 C 11.3 km/h
445 03-12-2018 13:00:00 12.7 C 10.58 g/m*3 12.7 C 9.7 km/h
446 03-12-2018 13:05:00 12.6 C 10.4 g/m*3 12.6 C 17.7 km/h
447 03-12-2018 13:10:00 12.6 C 10.4 g/m*3 12.6 C 4.8 km/h
448 03-12-2018 13:15:00 12.4 C 10.27 g/m*3 12.4 C 8.1 km/h
449 03-12-2018 13:20:00 12.4 C 10.16 g/m*3 12.4 C 17.7 km/h
450 03-12-2018 13:25:00 12.4 C 10.27 g/m*3 12.4 C 8.1 km/h
Sensor: Nr:Datum:Temp:Abs-Feuchte:Windchill:Wind:
Aussen-T/F 451 03-12-2018 13:30:00 12.3 C 10.21 g/m*3 12.3 C 9.7 km/h
452 03-12-2018 13:35:00 12.3 C 10.21 g/m*3 12.3 C 1.6 km/h
453 03-12-2018 13:40:00 12.3 C 10.21 g/m*3 12.3 C 11.3 km/h
454 03-12-2018 13:45:00 12.3 C 10.21 g/m*3 12.3 C 11.3 km/h
455 03-12-2018 13:50:00 12.3 C 10.21 g/m*3 12.3 C 6.4 km/h
456 03-12-2018 13:55:00 12.3 C 10.21 g/m*3 12.3 C 6.4 km/h
457 03-12-2018 14:00:00 12.3 C 10.21 g/m*3 12.3 C 9.7 km/h
458 03-12-2018 14:05:00 12.3 C 10.21 g/m*3 12.3 C 11.3 km/h
459 03-12-2018 14:10:00 12.3 C 10.21 g/m*3 12.3 C 8.1 km/h
460 03-12-2018 14:15:00 12.2 C 10.14 g/m*3 12.2 C 6.4 km/h
461 03-12-2018 14:20:00 12.2 C 10.14 g/m*3 12.2 C 1.6 km/h
462 03-12-2018 14:25:00 12.2 C 10.14 g/m*3 12.2 C 9.7 km/h
463 03-12-2018 14:30:00 12.1 C 10.19 g/m*3 12.1 C 3.2 km/h
464 03-12-2018 14:35:00 12.1 C 10.19 g/m*3 12.1 C 6.4 km/h
465 03-12-2018 14:40:00 12.1 C 10.19 g/m*3 12.1 C 11.3 km/h
466 03-12-2018 14:45:00 12 C 10.02 g/m*3 12 C 6.4 km/h
467 03-12-2018 14:50:00 11.9 C 10.06 g/m*3 11.9 C 6.4 km/h
468 03-12-2018 14:55:00 11.9 C 10.06 g/m*3 11.9 C 6.4 km/h
469 03-12-2018 15:00:00 11.9 C 9.96 g/m*3 11.9 C 11.3 km/h
470 03-12-2018 15:05:00 11.9 C 9.96 g/m*3 11.9 C 12.9 km/h
471 03-12-2018 15:10:00 11.9 C 9.96 g/m*3 11.9 C 6.4 km/h
472 03-12-2018 15:15:00 11.9 C 9.96 g/m*3 11.9 C 6.4 km/h
473 03-12-2018 15:20:00 11.9 C 9.96 g/m*3 11.9 C 6.4 km/h
474 03-12-2018 15:25:00 11.9 C 9.96 g/m*3 11.9 C 6.4 km/h
475 03-12-2018 15:30:00 11.8 C 9.89 g/m*3 11.8 C 3.2 km/h
Sensor: Nr:Datum:Temp:Abs-Feuchte:Windchill:Wind:
Aussen-T/F 476 03-12-2018 15:35:00 11.8 C 9.89 g/m*3 11.8 C 4.8 km/h
477 03-12-2018 15:40:00 11.8 C 9.89 g/m*3 11.8 C 3.2 km/h
478 03-12-2018 15:45:00 11.7 C 9.83 g/m*3 11.7 C 6.4 km/h
479 03-12-2018 15:50:00 11.7 C 9.83 g/m*3 11.7 C 4.8 km/h
480 03-12-2018 15:55:00 11.7 C 9.83 g/m*3 11.7 C 8.1 km/h
481 03-12-2018 16:00:00 11.6 C 9.77 g/m*3 11.6 C 3.2 km/h
482 03-12-2018 16:05:00 11.6 C 9.77 g/m*3 11.6 C 4.8 km/h
483 03-12-2018 16:10:00 11.6 C 9.77 g/m*3 11.6 C 0 km/h
484 03-12-2018 16:15:00 11.5 C 9.71 g/m*3 11.5 C 3.2 km/h
485 03-12-2018 16:20:00 11.6 C 9.77 g/m*3 11.6 C 0 km/h
486 03-12-2018 16:25:00 11.6 C 9.77 g/m*3 11.6 C 1.6 km/h
487 03-12-2018 16:30:00 11.6 C 9.87 g/m*3 11.6 C 0 km/h
488 03-12-2018 16:35:00 11.6 C 9.87 g/m*3 11.6 C 0 km/h
489 03-12-2018 16:40:00 11.5 C 9.81 g/m*3 11.5 C 0 km/h
490 03-12-2018 16:45:00 11.5 C 9.81 g/m*3 11.5 C 0 km/h
491 03-12-2018 16:50:00 11.5 C 9.81 g/m*3 11.5 C 0 km/h
492 03-12-2018 16:55:00 11.4 C 9.75 g/m*3 11.4 C 1.6 km/h
493 03-12-2018 17:00:00 11.4 C 9.75 g/m*3 11.4 C 0 km/h
494 03-12-2018 17:05:00 11.4 C 9.75 g/m*3 11.4 C 0 km/h
495 03-12-2018 17:10:00 11.3 C 9.69 g/m*3 11.3 C 1.6 km/h
496 03-12-2018 17:15:00 11.3 C 9.69 g/m*3 11.3 C 8.1 km/h
497 03-12-2018 17:20:00 11.3 C 9.69 g/m*3 11.3 C 6.4 km/h
498 03-12-2018 17:25:00 11.2 C 9.63 g/m*3 11.2 C 3.2 km/h
499 03-12-2018 17:30:00 11.2 C 9.63 g/m*3 11.2 C 1.6 km/h
500 03-12-2018 17:35:00 11.2 C 9.63 g/m*3 11.2 C 3.2 km/h
Sensor: Nr:Datum:Temp:Abs-Feuchte:Windchill:Wind:
Aussen-T/F 501 03-12-2018 17:40:00 11.1 C 9.57 g/m*3 11.1 C 9.7 km/h
502 03-12-2018 17:45:00 11.1 C 9.67 g/m*3 11.1 C 3.2 km/h
503 03-12-2018 17:50:00 11.1 C 9.67 g/m*3 11.1 C 1.6 km/h
504 03-12-2018 17:55:00 11.1 C 9.67 g/m*3 11.1 C 0 km/h
505 03-12-2018 18:00:00 11.1 C 9.67 g/m*3 11.1 C 8.1 km/h
506 03-12-2018 18:05:00 11.1 C 9.67 g/m*3 11.1 C 8.1 km/h
507 03-12-2018 18:10:00 11.1 C 9.67 g/m*3 11.1 C 4.8 km/h
508 03-12-2018 18:15:00 11.1 C 9.67 g/m*3 11.1 C 4.8 km/h
509 03-12-2018 18:20:00 11.1 C 9.67 g/m*3 11.1 C 4.8 km/h
510 03-12-2018 18:25:00 11.1 C 9.67 g/m*3 11.1 C 1.6 km/h
511 03-12-2018 18:30:00 11 C 9.61 g/m*3 11 C 4.8 km/h
512 03-12-2018 18:35:00 11.1 C 9.67 g/m*3 11.1 C 8.1 km/h
513 03-12-2018 18:40:00 11.1 C 9.67 g/m*3 11.1 C 1.6 km/h
514 03-12-2018 18:45:00 11 C 9.61 g/m*3 11 C 4.8 km/h
515 03-12-2018 18:50:00 11 C 9.61 g/m*3 11 C 3.2 km/h
516 03-12-2018 18:55:00 10.9 C 9.55 g/m*3 10.9 C 4.8 km/h
517 03-12-2018 19:00:00 10.9 C 9.55 g/m*3 10.9 C 4.8 km/h
518 03-12-2018 19:05:00 10.9 C 9.55 g/m*3 10.9 C 1.6 km/h
519 03-12-2018 19:10:00 10.8 C 9.49 g/m*3 10.8 C 0 km/h
520 03-12-2018 19:15:00 10.8 C 9.49 g/m*3 9.64 C 9.7 km/h
521 03-12-2018 19:20:00 10.9 C 9.55 g/m*3 10.04 C 8.1 km/h
522 03-12-2018 19:25:00 10.9 C 9.55 g/m*3 10.9 C 4.8 km/h
523 03-12-2018 19:30:00 10.9 C 9.55 g/m*3 10.9 C 4.8 km/h
524 03-12-2018 19:35:00 10.9 C 9.55 g/m*3 10.9 C 1.6 km/h
525 03-12-2018 19:40:00 10.9 C 9.55 g/m*3 10.9 C 4.8 km/h
Sensor: Nr:Datum:Temp:Abs-Feuchte:Windchill:Wind:
Aussen-T/F 526 03-12-2018 19:45:00 10.9 C 9.55 g/m*3 10.9 C 3.2 km/h
527 03-12-2018 19:50:00 10.9 C 9.55 g/m*3 9.76 C 9.7 km/h
528 03-12-2018 19:55:00 10.9 C 9.55 g/m*3 10.9 C 3.2 km/h
529 03-12-2018 20:00:00 10.9 C 9.55 g/m*3 10.9 C 4.8 km/h
530 03-12-2018 20:05:00 10.9 C 9.55 g/m*3 10.9 C 3.2 km/h
531 03-12-2018 20:10:00 10.9 C 9.55 g/m*3 10.9 C 3.2 km/h
532 03-12-2018 20:15:00 10.8 C 9.49 g/m*3 10.8 C 4.8 km/h
533 03-12-2018 20:20:00 10.8 C 9.49 g/m*3 10.8 C 3.2 km/h
534 03-12-2018 20:25:00 10.7 C 9.43 g/m*3 10.18 C 6.4 km/h
535 03-12-2018 20:30:00 10.8 C 9.49 g/m*3 9.64 C 9.7 km/h
536 03-12-2018 20:35:00 10.9 C 9.55 g/m*3 10.9 C 3.2 km/h
537 03-12-2018 20:40:00 10.9 C 9.55 g/m*3 9.76 C 9.7 km/h
538 03-12-2018 20:45:00 10.9 C 9.55 g/m*3 9.76 C 9.7 km/h
539 03-12-2018 20:50:00 11 C 9.61 g/m*3 9.88 C 9.7 km/h
540 03-12-2018 20:55:00 10.9 C 9.55 g/m*3 10.41 C 6.4 km/h
541 03-12-2018 21:00:00 10.8 C 9.39 g/m*3 10.8 C 4.8 km/h
542 03-12-2018 21:05:00 10.7 C 9.33 g/m*3 10.7 C 3.2 km/h
543 03-12-2018 21:10:00 10.6 C 9.27 g/m*3 10.6 C 1.6 km/h
544 03-12-2018 21:15:00 10.4 C 9.16 g/m*3 10.4 C 3.2 km/h
545 03-12-2018 21:20:00 10.3 C 9.1 g/m*3 10.3 C 1.6 km/h
546 03-12-2018 21:25:00 10.2 C 9.04 g/m*3 10.2 C 1.6 km/h
547 03-12-2018 21:30:00 10.1 C 8.98 g/m*3 9.1 C 8.1 km/h
548 03-12-2018 21:35:00 10 C 8.93 g/m*3 10 C 3.2 km/h
549 03-12-2018 21:40:00 10 C 8.93 g/m*3 10 C 4.8 km/h
550 03-12-2018 21:45:00 10 C 9.02 g/m*3 10 C 4.8 km/h
Sensor: Nr:Datum:Temp:Abs-Feuchte:Windchill:Wind:
Aussen-T/F 551 03-12-2018 21:50:00 9.9 C 8.96 g/m*3 9.9 C 3.2 km/h
552 03-12-2018 21:55:00 9.8 C 8.91 g/m*3 9.8 C 4.8 km/h
553 03-12-2018 22:00:00 9.8 C 8.91 g/m*3 9.8 C 1.6 km/h
554 03-12-2018 22:05:00 9.8 C 8.81 g/m*3 9.8 C 0 km/h
555 03-12-2018 22:10:00 9.7 C 8.76 g/m*3 9.7 C 4.8 km/h
556 03-12-2018 22:15:00 9.6 C 8.7 g/m*3 9.6 C 3.2 km/h
557 03-12-2018 22:20:00 9.6 C 8.79 g/m*3 9.6 C 3.2 km/h
558 03-12-2018 22:25:00 9.6 C 8.79 g/m*3 9.6 C 4.8 km/h
559 03-12-2018 22:30:00 9.6 C 8.79 g/m*3 9.6 C 1.6 km/h
560 03-12-2018 22:35:00 9.6 C 8.79 g/m*3 9.6 C 1.6 km/h
561 03-12-2018 22:40:00 9.7 C 8.85 g/m*3 9.7 C 3.2 km/h
562 03-12-2018 22:45:00 9.7 C 8.85 g/m*3 9.7 C 4.8 km/h
563 03-12-2018 22:50:00 9.9 C 8.96 g/m*3 9.25 C 6.4 km/h
564 03-12-2018 22:55:00 10.2 C 9.23 g/m*3 8.22 C 14.5 km/h
565 03-12-2018 23:00:00 10.4 C 9.35 g/m*3 9.83 C 6.4 km/h
566 03-12-2018 23:05:00 10.5 C 9.31 g/m*3 9.57 C 8.1 km/h
567 03-12-2018 23:10:00 10.6 C 9.37 g/m*3 9.4 C 9.7 km/h
568 03-12-2018 23:15:00 10.7 C 9.33 g/m*3 9.81 C 8.1 km/h
569 03-12-2018 23:20:00 10.7 C 9.33 g/m*3 8.48 C 17.7 km/h
570 03-12-2018 23:25:00 10.7 C 9.33 g/m*3 9.26 C 11.3 km/h
571 03-12-2018 23:30:00 10.8 C 9.39 g/m*3 9.16 C 12.9 km/h
572 03-12-2018 23:35:00 10.7 C 9.23 g/m*3 9.81 C 8.1 km/h
573 03-12-2018 23:40:00 10.7 C 9.23 g/m*3 8.84 C 14.5 km/h
574 03-12-2018 23:45:00 10.7 C 9.23 g/m*3 10.18 C 6.4 km/h
575 03-12-2018 23:50:00 10.7 C 9.23 g/m*3 10.7 C 4.8 km/h
Sensor: Nr:Datum:Temp:Abs-Feuchte:Windchill:Wind:
Aussen-T/F 576 03-12-2018 23:55:00 10.6 C 9.17 g/m*3 9.14 C 11.3 km/h
577 04-12-2018 00:00:00 10.7 C 9.23 g/m*3 9.81 C 8.1 km/h
578 04-12-2018 00:05:00 10.7 C 9.23 g/m*3 9.04 C 12.9 km/h
579 04-12-2018 00:10:00 10.7 C 9.23 g/m*3 9.81 C 8.1 km/h
580 04-12-2018 00:15:00 10.8 C 9.29 g/m*3 10.29 C 6.4 km/h
581 04-12-2018 00:20:00 10.8 C 9.29 g/m*3 9.93 C 8.1 km/h
582 04-12-2018 00:25:00 10.8 C 9.29 g/m*3 9.93 C 8.1 km/h
583 04-12-2018 00:30:00 10.8 C 9.29 g/m*3 10.8 C 4.8 km/h
584 04-12-2018 00:35:00 10.8 C 9.29 g/m*3 9.93 C 8.1 km/h
585 04-12-2018 00:40:00 10.8 C 9.29 g/m*3 10.8 C 3.2 km/h
586 04-12-2018 00:45:00 10.8 C 9.29 g/m*3 10.8 C 4.8 km/h
587 04-12-2018 00:50:00 10.8 C 9.29 g/m*3 9.93 C 8.1 km/h
588 04-12-2018 00:55:00 10.8 C 9.29 g/m*3 9.93 C 8.1 km/h
589 04-12-2018 01:00:00 10.7 C 9.23 g/m*3 9.26 C 11.3 km/h
590 04-12-2018 01:05:00 10.7 C 9.23 g/m*3 9.81 C 8.1 km/h
591 04-12-2018 01:10:00 10.7 C 9.23 g/m*3 9.26 C 11.3 km/h
592 04-12-2018 01:15:00 10.7 C 9.13 g/m*3 8.65 C 16.1 km/h
593 04-12-2018 01:20:00 10.7 C 9.13 g/m*3 9.26 C 11.3 km/h
594 04-12-2018 01:25:00 10.7 C 9.13 g/m*3 9.26 C 11.3 km/h
595 04-12-2018 01:30:00 10.7 C 9.13 g/m*3 9.81 C 8.1 km/h
596 04-12-2018 01:35:00 10.6 C 9.08 g/m*3 10.06 C 6.4 km/h
597 04-12-2018 01:40:00 10.5 C 8.92 g/m*3 9.57 C 8.1 km/h
598 04-12-2018 01:45:00 10.4 C 8.87 g/m*3 8.9 C 11.3 km/h
599 04-12-2018 01:50:00 10.3 C 8.81 g/m*3 9.04 C 9.7 km/h
600 04-12-2018 01:55:00 10.3 C 8.81 g/m*3 8.78 C 11.3 km/h
Sensor: Nr:Datum:Temp:Abs-Feuchte:Windchill:Wind:
Aussen-T/F 601 04-12-2018 02:00:00 10.3 C 8.71 g/m*3 8.78 C 11.3 km/h
602 04-12-2018 02:05:00 10.2 C 8.56 g/m*3 10.2 C 4.8 km/h
603 04-12-2018 02:10:00 10.2 C 8.66 g/m*3 8.92 C 9.7 km/h
604 04-12-2018 02:15:00 10.2 C 8.56 g/m*3 8.66 C 11.3 km/h
605 04-12-2018 02:20:00 10.3 C 8.62 g/m*3 9.04 C 9.7 km/h
606 04-12-2018 02:25:00 10.3 C 8.62 g/m*3 8.78 C 11.3 km/h
607 04-12-2018 02:30:00 10.4 C 8.67 g/m*3 9.83 C 6.4 km/h
608 04-12-2018 02:35:00 10.3 C 8.52 g/m*3 9.72 C 6.4 km/h
609 04-12-2018 02:40:00 10.3 C 8.52 g/m*3 9.72 C 6.4 km/h
610 04-12-2018 02:45:00 10.3 C 8.52 g/m*3 9.04 C 9.7 km/h
611 04-12-2018 02:50:00 10.3 C 8.52 g/m*3 9.72 C 6.4 km/h
612 04-12-2018 02:55:00 10.3 C 8.52 g/m*3 10.3 C 4.8 km/h
613 04-12-2018 03:00:00 10.3 C 8.52 g/m*3 10.3 C 4.8 km/h
614 04-12-2018 03:05:00 10.2 C 8.47 g/m*3 8.92 C 9.7 km/h
615 04-12-2018 03:10:00 10.2 C 8.37 g/m*3 7.54 C 20.9 km/h
616 04-12-2018 03:15:00 10.1 C 8.23 g/m*3 7.91 C 16.1 km/h
617 04-12-2018 03:20:00 9.9 C 8.12 g/m*3 7.48 C 17.7 km/h
618 04-12-2018 03:25:00 9.7 C 8.11 g/m*3 7.23 C 17.7 km/h
619 04-12-2018 03:30:00 9.6 C 8.06 g/m*3 7.11 C 17.7 km/h
620 04-12-2018 03:35:00 9.4 C 7.96 g/m*3 7.04 C 16.1 km/h
621 04-12-2018 03:40:00 9.4 C 7.96 g/m*3 7.7 C 11.3 km/h
622 04-12-2018 03:45:00 9.3 C 8 g/m*3 8.16 C 8.1 km/h
623 04-12-2018 03:50:00 9.2 C 7.95 g/m*3 8.05 C 8.1 km/h
624 04-12-2018 03:55:00 9.1 C 7.9 g/m*3 6.87 C 14.5 km/h
625 04-12-2018 04:00:00 9 C 7.85 g/m*3 6.75 C 14.5 km/h
Sensor: Nr:Datum:Temp:Abs-Feuchte:Windchill:Wind:
Aussen-T/F 626 04-12-2018 04:05:00 8.9 C 7.8 g/m*3 7.37 C 9.7 km/h
627 04-12-2018 04:10:00 8.9 C 7.8 g/m*3 7.37 C 9.7 km/h
628 04-12-2018 04:15:00 8.8 C 7.83 g/m*3 7.25 C 9.7 km/h
629 04-12-2018 04:20:00 8.8 C 7.83 g/m*3 6.97 C 11.3 km/h
630 04-12-2018 04:25:00 8.8 C 7.83 g/m*3 6.97 C 11.3 km/h
631 04-12-2018 04:30:00 8.7 C 7.78 g/m*3 7.46 C 8.1 km/h
632 04-12-2018 04:35:00 8.7 C 7.78 g/m*3 6.38 C 14.5 km/h
633 04-12-2018 04:40:00 8.6 C 7.73 g/m*3 7.01 C 9.7 km/h
634 04-12-2018 04:45:00 8.6 C 7.73 g/m*3 6.73 C 11.3 km/h
635 04-12-2018 04:50:00 8.6 C 7.73 g/m*3 6.73 C 11.3 km/h
636 04-12-2018 04:55:00 8.5 C 7.68 g/m*3 6.61 C 11.3 km/h
637 04-12-2018 05:00:00 8.5 C 7.68 g/m*3 6.61 C 11.3 km/h
638 04-12-2018 05:05:00 8.4 C 7.72 g/m*3 7.11 C 8.1 km/h
639 04-12-2018 05:10:00 8.4 C 7.72 g/m*3 7.11 C 8.1 km/h
640 04-12-2018 05:15:00 8.4 C 7.63 g/m*3 6.78 C 9.7 km/h
641 04-12-2018 05:20:00 8.4 C 7.63 g/m*3 6.78 C 9.7 km/h
642 04-12-2018 05:25:00 8.3 C 7.59 g/m*3 7.41 C 6.4 km/h
643 04-12-2018 05:30:00 8.3 C 7.59 g/m*3 6.99 C 8.1 km/h
644 04-12-2018 05:35:00 8.3 C 7.59 g/m*3 6.37 C 11.3 km/h
645 04-12-2018 05:40:00 8.3 C 7.59 g/m*3 6.99 C 8.1 km/h
646 04-12-2018 05:45:00 8.3 C 7.59 g/m*3 8.3 C 4.8 km/h
647 04-12-2018 05:50:00 8.2 C 7.54 g/m*3 7.29 C 6.4 km/h
648 04-12-2018 05:55:00 8.1 C 7.57 g/m*3 8.1 C 4.8 km/h
649 04-12-2018 06:00:00 8.1 C 7.57 g/m*3 8.1 C 1.6 km/h
650 04-12-2018 06:05:00 7.9 C 7.47 g/m*3 7.9 C 1.6 km/h
Sensor: Nr:Datum:Temp:Abs-Feuchte:Windchill:Wind:
Aussen-T/F 651 04-12-2018 06:10:00 7.9 C 7.47 g/m*3 7.9 C 1.6 km/h
652 04-12-2018 06:15:00 7.8 C 7.43 g/m*3 7.8 C 1.6 km/h
653 04-12-2018 06:20:00 7.8 C 7.43 g/m*3 7.8 C 0 km/h
654 04-12-2018 06:25:00 7.7 C 7.46 g/m*3 7.7 C 0 km/h
655 04-12-2018 06:30:00 7.7 C 7.46 g/m*3 7.7 C 1.6 km/h
656 04-12-2018 06:35:00 7.6 C 7.41 g/m*3 7.6 C 0 km/h
657 04-12-2018 06:40:00 7.6 C 7.41 g/m*3 7.6 C 0 km/h
658 04-12-2018 06:45:00 7.6 C 7.41 g/m*3 7.6 C 0 km/h
659 04-12-2018 06:50:00 7.6 C 7.41 g/m*3 7.6 C 0 km/h
660 04-12-2018 06:55:00 7.6 C 7.41 g/m*3 7.6 C 4.8 km/h
661 04-12-2018 07:00:00 7.6 C 7.41 g/m*3 7.6 C 3.2 km/h
662 04-12-2018 07:05:00 7.6 C 7.41 g/m*3 7.6 C 3.2 km/h
663 04-12-2018 07:10:00 7.7 C 7.46 g/m*3 6.28 C 8.1 km/h
664 04-12-2018 07:15:00 7.7 C 7.46 g/m*3 7.7 C 1.6 km/h
665 04-12-2018 07:20:00 7.7 C 7.46 g/m*3 7.7 C 1.6 km/h
666 04-12-2018 07:25:00 7.7 C 7.46 g/m*3 7.7 C 3.2 km/h
667 04-12-2018 07:30:00 7.7 C 7.46 g/m*3 6.71 C 6.4 km/h
668 04-12-2018 07:35:00 7.7 C 7.38 g/m*3 6.71 C 6.4 km/h
669 04-12-2018 07:40:00 7.6 C 7.33 g/m*3 5.82 C 9.7 km/h
670 04-12-2018 07:45:00 7.6 C 7.33 g/m*3 7.6 C 4.8 km/h
671 04-12-2018 07:50:00 7.5 C 7.28 g/m*3 7.5 C 3.2 km/h
672 04-12-2018 07:55:00 7.4 C 7.24 g/m*3 7.4 C 3.2 km/h
673 04-12-2018 08:00:00 7.4 C 7.24 g/m*3 7.4 C 3.2 km/h
674 04-12-2018 08:05:00 7.4 C 7.32 g/m*3 7.4 C 3.2 km/h
675 04-12-2018 08:10:00 7.4 C 7.32 g/m*3 7.4 C 4.8 km/h
Sensor: Nr:Datum:Temp:Abs-Feuchte:Windchill:Wind:
Aussen-T/F 676 04-12-2018 08:15:00 7.4 C 7.32 g/m*3 7.4 C 3.2 km/h
677 04-12-2018 08:20:00 7.3 C 7.27 g/m*3 7.3 C 3.2 km/h
678 04-12-2018 08:25:00 7.3 C 7.27 g/m*3 7.3 C 3.2 km/h
679 04-12-2018 08:30:00 7.2 C 7.22 g/m*3 7.2 C 1.6 km/h
680 04-12-2018 08:35:00 7.2 C 7.22 g/m*3 7.2 C 3.2 km/h
681 04-12-2018 08:40:00 7.1 C 7.18 g/m*3 7.1 C 4.8 km/h
682 04-12-2018 08:45:00 7.1 C 7.18 g/m*3 6.02 C 6.4 km/h
683 04-12-2018 08:50:00 7.1 C 7.18 g/m*3 7.1 C 1.6 km/h
684 04-12-2018 08:55:00 7.1 C 7.1 g/m*3 5.58 C 8.1 km/h
685 04-12-2018 09:00:00 7.1 C 7.1 g/m*3 7.1 C 1.6 km/h
686 04-12-2018 09:05:00 7.1 C 7.1 g/m*3 7.1 C 1.6 km/h
687 04-12-2018 09:10:00 7.1 C 7.1 g/m*3 7.1 C 0 km/h
688 04-12-2018 09:15:00 7.1 C 7.02 g/m*3 7.1 C 0 km/h
689 04-12-2018 09:20:00 7.2 C 7.06 g/m*3 6.13 C 6.4 km/h
690 04-12-2018 09:25:00 7.2 C 7.06 g/m*3 7.2 C 4.8 km/h
691 04-12-2018 09:30:00 7.3 C 7.03 g/m*3 7.3 C 4.8 km/h
692 04-12-2018 09:35:00 7.3 C 7.03 g/m*3 7.3 C 1.6 km/h
693 04-12-2018 09:40:00 7.4 C 7.08 g/m*3 7.4 C 4.8 km/h
694 04-12-2018 09:45:00 7.4 C 7 g/m*3 7.4 C 3.2 km/h
695 04-12-2018 09:50:00 7.5 C 7.12 g/m*3 7.5 C 3.2 km/h
696 04-12-2018 09:55:00 7.6 C 7.17 g/m*3 7.6 C 0 km/h
697 04-12-2018 10:00:00 7.6 C 7.09 g/m*3 7.6 C 0 km/h
698 04-12-2018 10:05:00 7.6 C 7.17 g/m*3 7.6 C 0 km/h
699 04-12-2018 10:10:00 7.6 C 7.09 g/m*3 7.6 C 0 km/h
700 04-12-2018 10:15:00 7.6 C 7.09 g/m*3 7.6 C 1.6 km/h
Sensor: Nr:Datum:Temp:Abs-Feuchte:Windchill:Wind:
Aussen-T/F 701 04-12-2018 10:20:00 7.6 C 7.09 g/m*3 7.6 C 3.2 km/h
702 04-12-2018 10:25:00 7.6 C 7.01 g/m*3 7.6 C 3.2 km/h
703 04-12-2018 10:30:00 7.7 C 7.14 g/m*3 6.71 C 6.4 km/h
704 04-12-2018 10:35:00 7.7 C 7.14 g/m*3 7.7 C 3.2 km/h
705 04-12-2018 10:40:00 7.6 C 7.09 g/m*3 7.6 C 0 km/h
706 04-12-2018 10:45:00 7.6 C 7.09 g/m*3 7.6 C 4.8 km/h
707 04-12-2018 10:50:00 7.5 C 7.04 g/m*3 6.48 C 6.4 km/h
708 04-12-2018 10:55:00 7.4 C 7 g/m*3 5.58 C 9.7 km/h
709 04-12-2018 11:00:00 7.5 C 7.04 g/m*3 6.05 C 8.1 km/h
710 04-12-2018 11:05:00 7.6 C 7.17 g/m*3 6.6 C 6.4 km/h
711 04-12-2018 11:10:00 7.7 C 7.22 g/m*3 6.71 C 6.4 km/h
712 04-12-2018 11:15:00 7.7 C 7.22 g/m*3 7.7 C 3.2 km/h
713 04-12-2018 11:20:00 7.8 C 7.18 g/m*3 6.83 C 6.4 km/h
714 04-12-2018 11:25:00 7.9 C 7.31 g/m*3 6.52 C 8.1 km/h
715 04-12-2018 11:30:00 8.1 C 7.41 g/m*3 6.13 C 11.3 km/h
716 04-12-2018 11:35:00 8.1 C 7.32 g/m*3 8.1 C 4.8 km/h
717 04-12-2018 11:40:00 8.2 C 7.45 g/m*3 8.2 C 4.8 km/h
718 04-12-2018 11:45:00 8.3 C 7.42 g/m*3 6.66 C 9.7 km/h
719 04-12-2018 11:50:00 8.4 C 7.47 g/m*3 8.4 C 4.8 km/h
720 04-12-2018 11:55:00 8.4 C 7.38 g/m*3 7.11 C 8.1 km/h
721 04-12-2018 12:00:00 8.4 C 7.3 g/m*3 6.24 C 12.9 km/h
722 04-12-2018 12:05:00 8.4 C 7.3 g/m*3 7.11 C 8.1 km/h
723 04-12-2018 12:10:00 8.4 C 7.3 g/m*3 6.78 C 9.7 km/h
724 04-12-2018 12:15:00 8.4 C 7.21 g/m*3 7.11 C 8.1 km/h
725 04-12-2018 12:20:00 8.4 C 7.3 g/m*3 6.78 C 9.7 km/h
Sensor: Nr:Datum:Temp:Abs-Feuchte:Windchill:Wind:
Aussen-T/F 726 04-12-2018 12:25:00 8.3 C 7.16 g/m*3 6.12 C 12.9 km/h
727 04-12-2018 12:30:00 8.3 C 7.16 g/m*3 7.41 C 6.4 km/h
728 04-12-2018 12:35:00 8.3 C 7.25 g/m*3 8.3 C 4.8 km/h
729 04-12-2018 12:40:00 8.2 C 7.2 g/m*3 7.29 C 6.4 km/h
730 04-12-2018 12:45:00 8.1 C 7.07 g/m*3 7.17 C 6.4 km/h
731 04-12-2018 12:50:00 8.1 C 7.16 g/m*3 8.1 C 3.2 km/h
732 04-12-2018 12:55:00 8.1 C 7.16 g/m*3 8.1 C 3.2 km/h
733 04-12-2018 13:00:00 8.1 C 7.16 g/m*3 7.17 C 6.4 km/h
734 04-12-2018 13:05:00 8.1 C 7.16 g/m*3 8.1 C 3.2 km/h
735 04-12-2018 13:10:00 8.1 C 7.16 g/m*3 8.1 C 3.2 km/h
736 04-12-2018 13:15:00 8.1 C 7.16 g/m*3 8.1 C 0 km/h
737 04-12-2018 13:20:00 8.1 C 7.16 g/m*3 8.1 C 4.8 km/h
738 04-12-2018 13:25:00 8.1 C 7.16 g/m*3 7.17 C 6.4 km/h
739 04-12-2018 13:30:00 8 C 7.03 g/m*3 8 C 4.8 km/h
740 04-12-2018 13:35:00 8 C 7.03 g/m*3 8 C 1.6 km/h
741 04-12-2018 13:40:00 8 C 7.03 g/m*3 8 C 0 km/h
742 04-12-2018 13:45:00 8.1 C 7.16 g/m*3 8.1 C 0 km/h
743 04-12-2018 13:50:00 8.1 C 7.24 g/m*3 8.1 C 0 km/h
744 04-12-2018 13:55:00 8.1 C 7.24 g/m*3 8.1 C 0 km/h
745 04-12-2018 14:00:00 8 C 7.19 g/m*3 8 C 0 km/h
746 04-12-2018 14:05:00 7.9 C 7.15 g/m*3 7.9 C 0 km/h
747 04-12-2018 14:10:00 7.8 C 7.18 g/m*3 7.8 C 0 km/h
748 04-12-2018 14:15:00 7.7 C 7.14 g/m*3 7.7 C 0 km/h
749 04-12-2018 14:20:00 7.6 C 7.17 g/m*3 7.6 C 0 km/h
750 04-12-2018 14:25:00 7.6 C 7.17 g/m*3 7.6 C 0 km/h
Sensor: Nr:Datum:Temp:Abs-Feuchte:Windchill:Wind:
Aussen-T/F 751 04-12-2018 14:30:00 7.6 C 7.25 g/m*3 7.6 C 0 km/h
752 04-12-2018 14:35:00 7.7 C 7.3 g/m*3 7.7 C 0 km/h
753 04-12-2018 14:40:00 7.8 C 7.35 g/m*3 7.8 C 0 km/h
754 04-12-2018 14:45:00 7.8 C 7.1 g/m*3 6.83 C 6.4 km/h
755 04-12-2018 14:50:00 7.9 C 7.06 g/m*3 7.9 C 4.8 km/h
756 04-12-2018 14:55:00 8.1 C 7.16 g/m*3 8.1 C 4.8 km/h
757 04-12-2018 15:00:00 8.2 C 7.03 g/m*3 6.87 C 8.1 km/h
758 04-12-2018 15:05:00 8.1 C 6.99 g/m*3 7.17 C 6.4 km/h
759 04-12-2018 15:10:00 7.9 C 6.82 g/m*3 6.94 C 6.4 km/h
760 04-12-2018 15:15:00 7.8 C 6.77 g/m*3 7.8 C 3.2 km/h
761 04-12-2018 15:20:00 7.7 C 6.73 g/m*3 7.7 C 1.6 km/h
762 04-12-2018 15:25:00 7.6 C 6.77 g/m*3 7.6 C 4.8 km/h
763 04-12-2018 15:30:00 7.4 C 6.68 g/m*3 7.4 C 3.2 km/h
764 04-12-2018 15:35:00 7.2 C 6.59 g/m*3 7.2 C 4.8 km/h
765 04-12-2018 15:40:00 7.1 C 6.63 g/m*3 7.1 C 0 km/h
766 04-12-2018 15:45:00 6.8 C 6.58 g/m*3 6.8 C 0 km/h
767 04-12-2018 15:50:00 6.6 C 6.49 g/m*3 6.6 C 0 km/h
768 04-12-2018 15:55:00 6.4 C 6.41 g/m*3 6.4 C 1.6 km/h
769 04-12-2018 16:00:00 6.1 C 6.28 g/m*3 6.1 C 0 km/h
770 04-12-2018 16:05:00 5.9 C 6.27 g/m*3 5.9 C 0 km/h
771 04-12-2018 16:10:00 5.7 C 6.19 g/m*3 5.7 C 0 km/h
772 04-12-2018 16:15:00 5.5 C 6.18 g/m*3 5.5 C 0 km/h
773 04-12-2018 16:20:00 5.3 C 6.1 g/m*3 5.3 C 0 km/h
774 04-12-2018 16:25:00 5.1 C 6.09 g/m*3 5.1 C 0 km/h
775 04-12-2018 16:30:00 4.9 C 6.08 g/m*3 4.9 C 0 km/h
Sensor: Nr:Datum:Temp:Abs-Feuchte:Windchill:Wind:
Aussen-T/F 776 04-12-2018 16:35:00 4.7 C 6 g/m*3 4.7 C 0 km/h
777 04-12-2018 16:40:00 4.6 C 5.96 g/m*3 4.6 C 0 km/h
778 04-12-2018 16:45:00 4.4 C 5.88 g/m*3 4.4 C 0 km/h
779 04-12-2018 16:50:00 4.3 C 5.9 g/m*3 4.3 C 0 km/h
780 04-12-2018 16:55:00 4.2 C 5.86 g/m*3 4.2 C 0 km/h
781 04-12-2018 17:00:00 4.1 C 5.89 g/m*3 4.1 C 0 km/h
782 04-12-2018 17:05:00 4 C 5.85 g/m*3 4 C 0 km/h
783 04-12-2018 17:10:00 3.8 C 5.77 g/m*3 3.8 C 0 km/h
784 04-12-2018 17:15:00 3.8 C 5.77 g/m*3 3.8 C 0 km/h
785 04-12-2018 17:20:00 3.7 C 5.73 g/m*3 3.7 C 0 km/h
786 04-12-2018 17:25:00 3.6 C 5.69 g/m*3 3.6 C 0 km/h
787 04-12-2018 17:30:00 3.5 C 5.72 g/m*3 3.5 C 0 km/h
788 04-12-2018 17:35:00 3.4 C 5.68 g/m*3 3.4 C 0 km/h
789 04-12-2018 17:40:00 3.4 C 5.68 g/m*3 3.4 C 0 km/h
790 04-12-2018 17:45:00 3.3 C 5.64 g/m*3 3.3 C 0 km/h
791 04-12-2018 17:50:00 3.3 C 5.64 g/m*3 3.3 C 0 km/h
792 04-12-2018 17:55:00 3.2 C 5.6 g/m*3 3.2 C 0 km/h
793 04-12-2018 18:00:00 3.1 C 5.63 g/m*3 3.1 C 0 km/h
794 04-12-2018 18:05:00 3 C 5.59 g/m*3 3 C 0 km/h
795 04-12-2018 18:10:00 2.9 C 5.55 g/m*3 2.9 C 0 km/h
796 04-12-2018 18:15:00 2.8 C 5.51 g/m*3 2.8 C 0 km/h
797 04-12-2018 18:20:00 2.7 C 5.48 g/m*3 2.7 C 0 km/h
798 04-12-2018 18:25:00 2.7 C 5.48 g/m*3 2.7 C 0 km/h
799 04-12-2018 18:30:00 2.7 C 5.48 g/m*3 2.7 C 0 km/h
800 04-12-2018 18:35:00 2.7 C 5.48 g/m*3 2.7 C 0 km/h
Sensor: Nr:Datum:Temp:Abs-Feuchte:Windchill:Wind:
Aussen-T/F 801 04-12-2018 18:40:00 2.6 C 5.44 g/m*3 2.6 C 0 km/h
802 04-12-2018 18:45:00 2.6 C 5.5 g/m*3 2.6 C 0 km/h
803 04-12-2018 18:50:00 2.7 C 5.54 g/m*3 2.7 C 0 km/h
804 04-12-2018 18:55:00 2.6 C 5.5 g/m*3 2.6 C 0 km/h
805 04-12-2018 19:00:00 2.5 C 5.4 g/m*3 2.5 C 0 km/h
806 04-12-2018 19:05:00 2.4 C 5.42 g/m*3 2.4 C 0 km/h
807 04-12-2018 19:10:00 2.4 C 5.42 g/m*3 2.4 C 0 km/h
808 04-12-2018 19:15:00 2.4 C 5.42 g/m*3 2.4 C 0 km/h
809 04-12-2018 19:20:00 2.3 C 5.39 g/m*3 2.3 C 0 km/h
810 04-12-2018 19:25:00 2.3 C 5.39 g/m*3 2.3 C 0 km/h
811 04-12-2018 19:30:00 2.4 C 5.42 g/m*3 2.4 C 0 km/h
812 04-12-2018 19:35:00 2.4 C 5.42 g/m*3 2.4 C 0 km/h
813 04-12-2018 19:40:00 2.3 C 5.39 g/m*3 2.3 C 0 km/h
814 04-12-2018 19:45:00 2.3 C 5.39 g/m*3 2.3 C 0 km/h
815 04-12-2018 19:50:00 2.3 C 5.39 g/m*3 2.3 C 0 km/h
816 04-12-2018 19:55:00 2.3 C 5.39 g/m*3 2.3 C 0 km/h
817 04-12-2018 20:00:00 2.2 C 5.35 g/m*3 2.2 C 0 km/h
818 04-12-2018 20:05:00 2.2 C 5.35 g/m*3 2.2 C 0 km/h
819 04-12-2018 20:10:00 2.1 C 5.31 g/m*3 2.1 C 0 km/h
820 04-12-2018 20:15:00 2 C 5.28 g/m*3 2 C 0 km/h
821 04-12-2018 20:20:00 1.9 C 5.24 g/m*3 1.9 C 0 km/h
822 04-12-2018 20:25:00 1.9 C 5.24 g/m*3 1.9 C 0 km/h
823 04-12-2018 20:30:00 1.9 C 5.24 g/m*3 1.9 C 0 km/h
824 04-12-2018 20:35:00 1.9 C 5.24 g/m*3 1.9 C 0 km/h
825 04-12-2018 20:40:00 1.9 C 5.24 g/m*3 1.9 C 0 km/h
Sensor: Nr:Datum:Temp:Abs-Feuchte:Windchill:Wind:
Aussen-T/F 826 04-12-2018 20:45:00 1.9 C 5.3 g/m*3 1.9 C 0 km/h
827 04-12-2018 20:50:00 2.1 C 5.37 g/m*3 2.1 C 0 km/h
828 04-12-2018 20:55:00 2.1 C 5.37 g/m*3 2.1 C 0 km/h
829 04-12-2018 21:00:00 2.1 C 5.37 g/m*3 2.1 C 0 km/h
830 04-12-2018 21:05:00 2 C 5.33 g/m*3 2 C 0 km/h
831 04-12-2018 21:10:00 1.8 C 5.21 g/m*3 1.8 C 0 km/h
832 04-12-2018 21:15:00 1.8 C 5.21 g/m*3 1.8 C 0 km/h
833 04-12-2018 21:20:00 1.7 C 5.17 g/m*3 1.7 C 0 km/h
834 04-12-2018 21:25:00 1.5 C 5.1 g/m*3 1.5 C 0 km/h
835 04-12-2018 21:30:00 1.4 C 5.07 g/m*3 1.4 C 0 km/h
836 04-12-2018 21:35:00 1.3 C 5.03 g/m*3 1.3 C 0 km/h
837 04-12-2018 21:40:00 1.3 C 5.03 g/m*3 1.3 C 0 km/h
838 04-12-2018 21:45:00 1.2 C 5 g/m*3 1.2 C 0 km/h
839 04-12-2018 21:50:00 1.2 C 5.05 g/m*3 1.2 C 0 km/h
840 04-12-2018 21:55:00 1.2 C 5.05 g/m*3 1.2 C 0 km/h
841 04-12-2018 22:00:00 1.2 C 5.05 g/m*3 1.2 C 0 km/h
842 04-12-2018 22:05:00 1.3 C 5.09 g/m*3 1.3 C 0 km/h
843 04-12-2018 22:10:00 1.3 C 5.09 g/m*3 1.3 C 1.6 km/h
844 04-12-2018 22:15:00 1.4 C 5.12 g/m*3 1.4 C 0 km/h
845 04-12-2018 22:20:00 1.4 C 5.12 g/m*3 1.4 C 0 km/h
846 04-12-2018 22:25:00 1.4 C 5.12 g/m*3 1.4 C 0 km/h
847 04-12-2018 22:30:00 1.4 C 5.12 g/m*3 1.4 C 0 km/h
848 04-12-2018 22:35:00 1.4 C 5.12 g/m*3 1.4 C 0 km/h
849 04-12-2018 22:40:00 1.5 C 5.16 g/m*3 1.5 C 0 km/h
850 04-12-2018 22:45:00 1.6 C 5.19 g/m*3 1.6 C 0 km/h
Sensor: Nr:Datum:Temp:Abs-Feuchte:Windchill:Wind:
Aussen-T/F 851 04-12-2018 22:50:00 1.6 C 5.19 g/m*3 1.6 C 0 km/h
852 04-12-2018 22:55:00 1.6 C 5.19 g/m*3 1.6 C 0 km/h
853 04-12-2018 23:00:00 1.6 C 5.19 g/m*3 1.6 C 0 km/h
854 04-12-2018 23:05:00 1.6 C 5.19 g/m*3 1.6 C 0 km/h
855 04-12-2018 23:10:00 1.5 C 5.16 g/m*3 1.5 C 0 km/h
856 04-12-2018 23:15:00 1.6 C 5.19 g/m*3 1.6 C 0 km/h
857 04-12-2018 23:20:00 1.6 C 5.19 g/m*3 1.6 C 0 km/h
858 04-12-2018 23:25:00 1.6 C 5.19 g/m*3 1.6 C 0 km/h
859 04-12-2018 23:30:00 1.6 C 5.19 g/m*3 1.6 C 0 km/h
860 04-12-2018 23:35:00 1.6 C 5.19 g/m*3 1.6 C 0 km/h
861 04-12-2018 23:40:00 1.5 C 5.16 g/m*3 1.5 C 0 km/h
862 04-12-2018 23:45:00 1.4 C 5.12 g/m*3 1.4 C 0 km/h
863 04-12-2018 23:50:00 1.4 C 5.12 g/m*3 1.4 C 0 km/h
864 04-12-2018 23:55:00 1.4 C 5.12 g/m*3 1.4 C 0 km/h
865 05-12-2018 00:00:00 1.5 C 5.16 g/m*3 1.5 C 0 km/h
866 05-12-2018 00:05:00 1.5 C 5.16 g/m*3 1.5 C 0 km/h
867 05-12-2018 00:10:00 1.6 C 5.25 g/m*3 1.6 C 0 km/h
868 05-12-2018 00:15:00 1.6 C 5.25 g/m*3 1.6 C 0 km/h
869 05-12-2018 00:20:00 1.6 C 5.25 g/m*3 1.6 C 0 km/h
870 05-12-2018 00:25:00 1.6 C 5.19 g/m*3 1.6 C 0 km/h
871 05-12-2018 00:30:00 1.7 C 5.23 g/m*3 1.7 C 0 km/h
872 05-12-2018 00:35:00 1.7 C 5.23 g/m*3 1.7 C 0 km/h
873 05-12-2018 00:40:00 1.7 C 5.23 g/m*3 1.7 C 0 km/h
874 05-12-2018 00:45:00 1.6 C 5.25 g/m*3 1.6 C 0 km/h
875 05-12-2018 00:50:00 1.6 C 5.25 g/m*3 1.6 C 0 km/h
Sensor: Nr:Datum:Temp:Abs-Feuchte:Windchill:Wind:
Aussen-T/F 876 05-12-2018 00:55:00 1.5 C 5.21 g/m*3 1.5 C 0 km/h
877 05-12-2018 01:00:00 1.4 C 5.12 g/m*3 1.4 C 0 km/h
878 05-12-2018 01:05:00 1.4 C 5.12 g/m*3 1.4 C 0 km/h
879 05-12-2018 01:10:00 1.4 C 5.12 g/m*3 1.4 C 0 km/h
880 05-12-2018 01:15:00 1.3 C 5.09 g/m*3 1.3 C 0 km/h
881 05-12-2018 01:20:00 1.3 C 5.09 g/m*3 1.3 C 0 km/h
882 05-12-2018 01:25:00 1.3 C 5.14 g/m*3 1.3 C 0 km/h
883 05-12-2018 01:30:00 1.3 C 5.14 g/m*3 1.3 C 0 km/h
884 05-12-2018 01:35:00 1.3 C 5.14 g/m*3 1.3 C 0 km/h
885 05-12-2018 01:40:00 1.3 C 5.14 g/m*3 1.3 C 0 km/h
886 05-12-2018 01:45:00 1.3 C 5.14 g/m*3 1.3 C 0 km/h
887 05-12-2018 01:50:00 1.3 C 5.14 g/m*3 1.3 C 0 km/h
888 05-12-2018 01:55:00 1.2 C 5.1 g/m*3 1.2 C 0 km/h
889 05-12-2018 02:00:00 1.2 C 5.05 g/m*3 1.2 C 0 km/h
890 05-12-2018 02:05:00 1.2 C 5.05 g/m*3 1.2 C 0 km/h
891 05-12-2018 02:10:00 1.2 C 5.05 g/m*3 1.2 C 0 km/h
892 05-12-2018 02:15:00 1.2 C 5.05 g/m*3 1.2 C 0 km/h
893 05-12-2018 02:20:00 1.2 C 5.05 g/m*3 1.2 C 1.6 km/h
894 05-12-2018 02:25:00 1.2 C 5.05 g/m*3 1.2 C 1.6 km/h
895 05-12-2018 02:30:00 1.2 C 5.05 g/m*3 1.2 C 0 km/h
896 05-12-2018 02:35:00 1.1 C 5.02 g/m*3 1.1 C 0 km/h
897 05-12-2018 02:40:00 1.1 C 5.02 g/m*3 1.1 C 0 km/h
898 05-12-2018 02:45:00 1.1 C 5.02 g/m*3 1.1 C 0 km/h
899 05-12-2018 02:50:00 1.1 C 5.07 g/m*3 1.1 C 0 km/h
900 05-12-2018 02:55:00 1.1 C 5.07 g/m*3 1.1 C 0 km/h
Sensor: Nr:Datum:Temp:Abs-Feuchte:Windchill:Wind:
Aussen-T/F 901 05-12-2018 03:00:00 1.1 C 5.07 g/m*3 1.1 C 0 km/h
902 05-12-2018 03:05:00 1.1 C 5.07 g/m*3 1.1 C 0 km/h
903 05-12-2018 03:10:00 1.1 C 5.07 g/m*3 1.1 C 0 km/h
904 05-12-2018 03:15:00 1.2 C 5.1 g/m*3 1.2 C 0 km/h
905 05-12-2018 03:20:00 1.2 C 5.1 g/m*3 1.2 C 0 km/h
906 05-12-2018 03:25:00 1.2 C 5.1 g/m*3 1.2 C 0 km/h
907 05-12-2018 03:30:00 1.2 C 5.1 g/m*3 1.2 C 0 km/h
908 05-12-2018 03:35:00 1.2 C 5.1 g/m*3 1.2 C 0 km/h
909 05-12-2018 03:40:00 1.2 C 5.1 g/m*3 1.2 C 0 km/h
910 05-12-2018 03:45:00 1.2 C 5.1 g/m*3 1.2 C 0 km/h
911 05-12-2018 03:50:00 1.2 C 5.1 g/m*3 1.2 C 0 km/h
912 05-12-2018 03:55:00 1.1 C 5.07 g/m*3 1.1 C 0 km/h
913 05-12-2018 04:00:00 1.1 C 5.07 g/m*3 1.1 C 0 km/h
914 05-12-2018 04:05:00 1.1 C 5.07 g/m*3 1.1 C 0 km/h
915 05-12-2018 04:10:00 1.1 C 5.07 g/m*3 1.1 C 1.6 km/h
916 05-12-2018 04:15:00 1.1 C 5.07 g/m*3 1.1 C 0 km/h
917 05-12-2018 04:20:00 1.1 C 5.07 g/m*3 1.1 C 0 km/h
918 05-12-2018 04:25:00 1.1 C 5.07 g/m*3 1.1 C 0 km/h
919 05-12-2018 04:30:00 1.1 C 5.07 g/m*3 1.1 C 0 km/h
920 05-12-2018 04:35:00 1.1 C 5.07 g/m*3 1.1 C 0 km/h
921 05-12-2018 04:40:00 1.1 C 5.07 g/m*3 1.1 C 0 km/h
922 05-12-2018 04:45:00 1.1 C 5.07 g/m*3 1.1 C 1.6 km/h
923 05-12-2018 04:50:00 1.1 C 5.07 g/m*3 1.1 C 0 km/h
924 05-12-2018 04:55:00 1.1 C 5.07 g/m*3 1.1 C 0 km/h
925 05-12-2018 05:00:00 1.1 C 5.07 g/m*3 1.1 C 0 km/h
Sensor: Nr:Datum:Temp:Abs-Feuchte:Windchill:Wind:
Aussen-T/F 926 05-12-2018 05:05:00 1.1 C 5.07 g/m*3 1.1 C 0 km/h
927 05-12-2018 05:10:00 1.1 C 5.07 g/m*3 1.1 C 0 km/h
928 05-12-2018 05:15:00 1.1 C 5.07 g/m*3 1.1 C 0 km/h
929 05-12-2018 05:20:00 1.2 C 5.1 g/m*3 1.2 C 0 km/h
930 05-12-2018 05:25:00 1.2 C 5.1 g/m*3 1.2 C 0 km/h
931 05-12-2018 05:30:00 1.2 C 5.1 g/m*3 1.2 C 0 km/h
932 05-12-2018 05:35:00 1.2 C 5.1 g/m*3 1.2 C 0 km/h
933 05-12-2018 05:40:00 1.2 C 5.1 g/m*3 1.2 C 0 km/h
934 05-12-2018 05:45:00 1.3 C 5.14 g/m*3 1.3 C 0 km/h
935 05-12-2018 05:50:00 1.3 C 5.14 g/m*3 1.3 C 0 km/h
936 05-12-2018 05:55:00 1.3 C 5.14 g/m*3 1.3 C 0 km/h
937 05-12-2018 06:00:00 1.3 C 5.14 g/m*3 1.3 C 0 km/h
938 05-12-2018 06:05:00 1.3 C 5.14 g/m*3 1.3 C 0 km/h
939 05-12-2018 06:10:00 1.3 C 5.14 g/m*3 1.3 C 0 km/h
940 05-12-2018 06:15:00 1.3 C 5.14 g/m*3 1.3 C 0 km/h
941 05-12-2018 06:20:00 1.3 C 5.14 g/m*3 1.3 C 0 km/h
942 05-12-2018 06:25:00 1.4 C 5.17 g/m*3 1.4 C 0 km/h
943 05-12-2018 06:30:00 1.4 C 5.17 g/m*3 1.4 C 0 km/h
944 05-12-2018 06:35:00 1.3 C 5.14 g/m*3 1.3 C 0 km/h
945 05-12-2018 06:40:00 1.3 C 5.14 g/m*3 1.3 C 0 km/h
946 05-12-2018 06:45:00 1.3 C 5.14 g/m*3 1.3 C 0 km/h
947 05-12-2018 06:50:00 1.3 C 5.14 g/m*3 1.3 C 0 km/h
948 05-12-2018 06:55:00 1.3 C 5.14 g/m*3 1.3 C 0 km/h
949 05-12-2018 07:00:00 1.3 C 5.14 g/m*3 1.3 C 0 km/h
950 05-12-2018 07:05:00 1.3 C 5.14 g/m*3 1.3 C 0 km/h
Sensor: Nr:Datum:Temp:Abs-Feuchte:Windchill:Wind:
Aussen-T/F 951 05-12-2018 07:10:00 1.3 C 5.14 g/m*3 1.3 C 0 km/h
952 05-12-2018 07:15:00 1.3 C 5.14 g/m*3 1.3 C 0 km/h
953 05-12-2018 07:20:00 1.3 C 5.14 g/m*3 1.3 C 0 km/h
954 05-12-2018 07:25:00 1.4 C 5.17 g/m*3 1.4 C 0 km/h
955 05-12-2018 07:30:00 1.4 C 5.17 g/m*3 1.4 C 0 km/h
956 05-12-2018 07:35:00 1.4 C 5.17 g/m*3 1.4 C 0 km/h
957 05-12-2018 07:40:00 1.5 C 5.21 g/m*3 1.5 C 0 km/h
958 05-12-2018 07:45:00 1.5 C 5.21 g/m*3 1.5 C 0 km/h
959 05-12-2018 07:50:00 1.6 C 5.25 g/m*3 1.6 C 0 km/h
960 05-12-2018 07:55:00 1.6 C 5.25 g/m*3 1.6 C 0 km/h
961 05-12-2018 08:00:00 1.6 C 5.25 g/m*3 1.6 C 0 km/h
962 05-12-2018 08:05:00 1.6 C 5.25 g/m*3 1.6 C 0 km/h
963 05-12-2018 08:10:00 1.6 C 5.25 g/m*3 1.6 C 0 km/h
964 05-12-2018 08:15:00 1.6 C 5.25 g/m*3 1.6 C 0 km/h
965 05-12-2018 08:20:00 1.7 C 5.28 g/m*3 1.7 C 0 km/h
966 05-12-2018 08:25:00 1.7 C 5.28 g/m*3 1.7 C 0 km/h
967 05-12-2018 08:30:00 1.7 C 5.28 g/m*3 1.7 C 0 km/h
968 05-12-2018 08:35:00 1.7 C 5.28 g/m*3 1.7 C 1.6 km/h
969 05-12-2018 08:40:00 1.8 C 5.32 g/m*3 1.8 C 0 km/h
970 05-12-2018 08:45:00 1.8 C 5.32 g/m*3 1.8 C 1.6 km/h
971 05-12-2018 08:50:00 1.8 C 5.32 g/m*3 1.8 C 0 km/h
972 05-12-2018 08:55:00 1.8 C 5.32 g/m*3 1.8 C 0 km/h
973 05-12-2018 09:00:00 1.8 C 5.32 g/m*3 1.8 C 1.6 km/h
974 05-12-2018 09:05:00 1.8 C 5.32 g/m*3 1.8 C 1.6 km/h
975 05-12-2018 09:10:00 1.8 C 5.32 g/m*3 1.8 C 3.2 km/h
Sensor: Nr:Datum:Temp:Abs-Feuchte:Windchill:Wind:
Aussen-T/F 976 05-12-2018 09:15:00 1.8 C 5.32 g/m*3 1.8 C 0 km/h
977 05-12-2018 09:20:00 1.8 C 5.32 g/m*3 1.8 C 0 km/h
978 05-12-2018 09:25:00 1.8 C 5.32 g/m*3 1.8 C 1.6 km/h
979 05-12-2018 09:30:00 1.8 C 5.32 g/m*3 1.8 C 0 km/h
980 05-12-2018 09:35:00 1.9 C 5.35 g/m*3 1.9 C 0 km/h
981 05-12-2018 09:40:00 1.9 C 5.35 g/m*3 1.9 C 1.6 km/h
982 05-12-2018 09:45:00 1.9 C 5.35 g/m*3 1.9 C 0 km/h
983 05-12-2018 09:50:00 1.9 C 5.35 g/m*3 1.9 C 3.2 km/h
984 05-12-2018 09:55:00 1.9 C 5.35 g/m*3 1.9 C 3.2 km/h
985 05-12-2018 10:00:00 2 C 5.39 g/m*3 2 C 3.2 km/h
986 05-12-2018 10:05:00 2.1 C 5.43 g/m*3 2.1 C 1.6 km/h
987 05-12-2018 10:10:00 2.1 C 5.48 g/m*3 2.1 C 0 km/h
988 05-12-2018 10:15:00 2.1 C 5.43 g/m*3 2.1 C 0 km/h
989 05-12-2018 10:20:00 2.2 C 5.46 g/m*3 2.2 C 0 km/h
990 05-12-2018 10:25:00 2.3 C 5.5 g/m*3 2.3 C 0 km/h
991 05-12-2018 10:30:00 2.3 C 5.5 g/m*3 2.3 C 0 km/h
992 05-12-2018 10:35:00 2.4 C 5.54 g/m*3 2.4 C 0 km/h
993 05-12-2018 10:40:00 2.5 C 5.63 g/m*3 2.5 C 0 km/h
994 05-12-2018 10:45:00 2.6 C 5.67 g/m*3 2.6 C 0 km/h
995 05-12-2018 10:50:00 2.6 C 5.61 g/m*3 2.6 C 0 km/h
996 05-12-2018 10:55:00 2.7 C 5.65 g/m*3 2.7 C 0 km/h
997 05-12-2018 11:00:00 2.8 C 5.75 g/m*3 2.8 C 0 km/h
998 05-12-2018 11:05:00 2.9 C 5.79 g/m*3 2.9 C 0 km/h
999 05-12-2018 11:10:00 2.9 C 5.79 g/m*3 2.9 C 3.2 km/h
1000 05-12-2018 11:15:00 3 C 5.83 g/m*3 3 C 0 km/h
Sensor: Nr:Datum:Temp:Abs-Feuchte:Windchill:Wind:
Aussen-T/F 1001 05-12-2018 11:20:00 3.1 C 5.87 g/m*3 3.1 C 0 km/h
1002 05-12-2018 11:25:00 3.1 C 5.87 g/m*3 3.1 C 1.6 km/h
1003 05-12-2018 11:30:00 3.2 C 5.91 g/m*3 3.2 C 0 km/h
1004 05-12-2018 11:35:00 3.2 C 5.91 g/m*3 3.2 C 3.2 km/h
1005 05-12-2018 11:40:00 3.2 C 5.91 g/m*3 3.2 C 1.6 km/h
1006 05-12-2018 11:45:00 3.3 C 5.95 g/m*3 3.3 C 1.6 km/h
1007 05-12-2018 11:50:00 3.3 C 5.95 g/m*3 3.3 C 0 km/h
1008 05-12-2018 11:55:00 3.4 C 5.99 g/m*3 3.4 C 0 km/h
1009 05-12-2018 12:00:00 3.6 C 6.07 g/m*3 3.6 C 0 km/h
1010 05-12-2018 12:05:00 3.7 C 6.11 g/m*3 3.7 C 0 km/h
1011 05-12-2018 12:10:00 3.8 C 6.15 g/m*3 3.8 C 1.6 km/h
1012 05-12-2018 12:15:00 3.9 C 6.19 g/m*3 3.9 C 1.6 km/h
1013 05-12-2018 12:20:00 4 C 6.23 g/m*3 4 C 0 km/h
1014 05-12-2018 12:25:00 4.1 C 6.27 g/m*3 4.1 C 0 km/h
1015 05-12-2018 12:30:00 4.1 C 6.27 g/m*3 4.1 C 0 km/h
1016 05-12-2018 12:35:00 4.2 C 6.31 g/m*3 4.2 C 0 km/h
1017 05-12-2018 12:40:00 4.3 C 6.36 g/m*3 4.3 C 0 km/h
1018 05-12-2018 12:45:00 4.4 C 6.4 g/m*3 4.4 C 0 km/h
1019 05-12-2018 12:50:00 4.4 C 6.4 g/m*3 4.4 C 0 km/h
1020 05-12-2018 12:55:00 4.5 C 6.44 g/m*3 4.5 C 1.6 km/h
1021 05-12-2018 13:00:00 4.6 C 6.48 g/m*3 4.6 C 1.6 km/h
1022 05-12-2018 13:05:00 4.7 C 6.53 g/m*3 4.7 C 1.6 km/h
1023 05-12-2018 13:10:00 4.8 C 6.57 g/m*3 4.8 C 0 km/h
1024 05-12-2018 13:15:00 4.8 C 6.57 g/m*3 4.8 C 0 km/h
1025 05-12-2018 13:20:00 5 C 6.66 g/m*3 5 C 0 km/h
Sensor: Nr:Datum:Temp:Abs-Feuchte:Windchill:Wind:
Aussen-T/F 1026 05-12-2018 13:25:00 5.1 C 6.7 g/m*3 5.1 C 0 km/h
1027 05-12-2018 13:30:00 5.2 C 6.75 g/m*3 5.2 C 1.6 km/h
1028 05-12-2018 13:35:00 5.2 C 6.75 g/m*3 5.2 C 0 km/h
1029 05-12-2018 13:40:00 5.3 C 6.79 g/m*3 5.3 C 0 km/h
1030 05-12-2018 13:45:00 5.5 C 6.88 g/m*3 5.5 C 0 km/h
1031 05-12-2018 13:50:00 5.7 C 6.97 g/m*3 5.7 C 0 km/h
1032 05-12-2018 13:55:00 5.8 C 7.02 g/m*3 5.8 C 0 km/h
1033 05-12-2018 14:00:00 5.9 C 7.07 g/m*3 5.9 C 0 km/h
1034 05-12-2018 14:05:00 6 C 7.11 g/m*3 6 C 0 km/h
1035 05-12-2018 14:10:00 6.1 C 7.16 g/m*3 6.1 C 3.2 km/h
1036 05-12-2018 14:15:00 6.1 C 7.16 g/m*3 6.1 C 1.6 km/h
1037 05-12-2018 14:20:00 6.2 C 7.13 g/m*3 6.2 C 1.6 km/h
1038 05-12-2018 14:25:00 6.2 C 7.21 g/m*3 6.2 C 0 km/h
1039 05-12-2018 14:30:00 6.3 C 7.18 g/m*3 6.3 C 1.6 km/h
1040 05-12-2018 14:35:00 6.5 C 7.27 g/m*3 6.5 C 0 km/h
1041 05-12-2018 14:40:00 6.6 C 7.32 g/m*3 6.6 C 0 km/h
1042 05-12-2018 14:45:00 6.7 C 7.37 g/m*3 6.7 C 0 km/h
1043 05-12-2018 14:50:00 6.8 C 7.42 g/m*3 6.8 C 0 km/h
1044 05-12-2018 14:55:00 6.8 C 7.42 g/m*3 6.8 C 0 km/h
1045 05-12-2018 15:00:00 6.8 C 7.42 g/m*3 6.8 C 0 km/h
1046 05-12-2018 15:05:00 6.9 C 7.39 g/m*3 6.9 C 0 km/h
1047 05-12-2018 15:10:00 6.8 C 7.34 g/m*3 6.8 C 1.6 km/h
1048 05-12-2018 15:15:00 6.8 C 7.34 g/m*3 6.8 C 0 km/h
1049 05-12-2018 15:20:00 6.8 C 7.34 g/m*3 6.8 C 1.6 km/h
1050 05-12-2018 15:25:00 6.7 C 7.22 g/m*3 6.7 C 1.6 km/h
Sensor: Nr:Datum:Temp:Abs-Feuchte:Windchill:Wind:
Aussen-T/F 1051 05-12-2018 15:30:00 6.7 C 7.22 g/m*3 6.7 C 0 km/h
1052 05-12-2018 15:35:00 6.6 C 7.17 g/m*3 6.6 C 0 km/h
1053 05-12-2018 15:40:00 6.6 C 7.17 g/m*3 6.6 C 0 km/h
1054 05-12-2018 15:45:00 6.4 C 7.08 g/m*3 6.4 C 3.2 km/h
1055 05-12-2018 15:50:00 6.3 C 7.03 g/m*3 6.3 C 1.6 km/h
1056 05-12-2018 15:55:00 6.2 C 6.99 g/m*3 6.2 C 0 km/h
1057 05-12-2018 16:00:00 6.2 C 6.99 g/m*3 6.2 C 1.6 km/h
1058 05-12-2018 16:05:00 6.1 C 6.94 g/m*3 6.1 C 0 km/h
1059 05-12-2018 16:10:00 6.1 C 6.87 g/m*3 6.1 C 3.2 km/h
1060 05-12-2018 16:15:00 6.1 C 6.87 g/m*3 6.1 C 0 km/h
1061 05-12-2018 16:20:00 6.1 C 6.87 g/m*3 6.1 C 1.6 km/h
1062 05-12-2018 16:25:00 6.1 C 6.87 g/m*3 6.1 C 0 km/h
1063 05-12-2018 16:30:00 6.1 C 6.87 g/m*3 6.1 C 0 km/h
1064 05-12-2018 16:35:00 6.1 C 6.87 g/m*3 6.1 C 0 km/h
1065 05-12-2018 16:40:00 6.1 C 6.87 g/m*3 6.1 C 1.6 km/h
1066 05-12-2018 16:45:00 6.1 C 6.94 g/m*3 6.1 C 0 km/h
1067 05-12-2018 16:50:00 6.1 C 6.94 g/m*3 6.1 C 0 km/h
1068 05-12-2018 16:55:00 6.1 C 6.94 g/m*3 6.1 C 0 km/h
1069 05-12-2018 17:00:00 6.1 C 6.94 g/m*3 6.1 C 0 km/h
1070 05-12-2018 17:05:00 6.1 C 6.94 g/m*3 6.1 C 0 km/h
1071 05-12-2018 17:10:00 6.1 C 6.94 g/m*3 6.1 C 0 km/h
1072 05-12-2018 17:15:00 6.1 C 6.94 g/m*3 6.1 C 0 km/h
1073 05-12-2018 17:20:00 6 C 6.9 g/m*3 6 C 0 km/h
1074 05-12-2018 17:25:00 6 C 6.9 g/m*3 6 C 0 km/h
1075 05-12-2018 17:30:00 6 C 6.9 g/m*3 6 C 4.8 km/h
Sensor: Nr:Datum:Temp:Abs-Feuchte:Windchill:Wind:
Aussen-T/F 1076 05-12-2018 17:35:00 6 C 6.82 g/m*3 6 C 0 km/h
1077 05-12-2018 17:40:00 6.1 C 6.87 g/m*3 6.1 C 1.6 km/h
1078 05-12-2018 17:45:00 6.1 C 6.87 g/m*3 4.86 C 6.4 km/h
1079 05-12-2018 17:50:00 6 C 6.82 g/m*3 4.75 C 6.4 km/h
1080 05-12-2018 17:55:00 6.1 C 6.87 g/m*3 4.04 C 9.7 km/h
1081 05-12-2018 18:00:00 6.1 C 6.87 g/m*3 6.1 C 3.2 km/h
1082 05-12-2018 18:05:00 6.1 C 6.87 g/m*3 4.04 C 9.7 km/h
1083 05-12-2018 18:10:00 6.1 C 6.79 g/m*3 6.1 C 3.2 km/h
1084 05-12-2018 18:15:00 6.1 C 6.79 g/m*3 6.1 C 3.2 km/h
1085 05-12-2018 18:20:00 6.1 C 6.79 g/m*3 6.1 C 4.8 km/h
1086 05-12-2018 18:25:00 6.1 C 6.79 g/m*3 4.86 C 6.4 km/h
1087 05-12-2018 18:30:00 6.1 C 6.79 g/m*3 4.4 C 8.1 km/h
1088 05-12-2018 18:35:00 6.1 C 6.79 g/m*3 6.1 C 3.2 km/h
1089 05-12-2018 18:40:00 6.1 C 6.79 g/m*3 6.1 C 4.8 km/h
1090 05-12-2018 18:45:00 6.1 C 6.79 g/m*3 6.1 C 4.8 km/h
1091 05-12-2018 18:50:00 6.1 C 6.79 g/m*3 6.1 C 3.2 km/h
1092 05-12-2018 18:55:00 6 C 6.75 g/m*3 6 C 1.6 km/h
1093 05-12-2018 19:00:00 6 C 6.75 g/m*3 6 C 1.6 km/h
1094 05-12-2018 19:05:00 6 C 6.75 g/m*3 6 C 0 km/h
1095 05-12-2018 19:10:00 6 C 6.75 g/m*3 6 C 0 km/h
1096 05-12-2018 19:15:00 6 C 6.75 g/m*3 6 C 0 km/h
1097 05-12-2018 19:20:00 5.9 C 6.71 g/m*3 5.9 C 0 km/h
1098 05-12-2018 19:25:00 5.9 C 6.71 g/m*3 5.9 C 0 km/h
1099 05-12-2018 19:30:00 5.9 C 6.71 g/m*3 5.9 C 0 km/h
1100 05-12-2018 19:35:00 5.8 C 6.66 g/m*3 5.8 C 0 km/h
Sensor: Nr:Datum:Temp:Abs-Feuchte:Windchill:Wind:
Aussen-T/F 1101 05-12-2018 19:40:00 5.8 C 6.66 g/m*3 5.8 C 0 km/h
1102 05-12-2018 19:45:00 5.8 C 6.73 g/m*3 5.8 C 0 km/h
1103 05-12-2018 19:50:00 5.8 C 6.73 g/m*3 5.8 C 0 km/h
1104 05-12-2018 19:55:00 5.7 C 6.69 g/m*3 5.7 C 0 km/h
1105 05-12-2018 20:00:00 5.7 C 6.69 g/m*3 5.7 C 0 km/h
1106 05-12-2018 20:05:00 5.6 C 6.57 g/m*3 5.6 C 0 km/h
1107 05-12-2018 20:10:00 5.4 C 6.49 g/m*3 5.4 C 0 km/h
1108 05-12-2018 20:15:00 5.3 C 6.52 g/m*3 5.3 C 0 km/h
1109 05-12-2018 20:20:00 5.3 C 6.52 g/m*3 5.3 C 0 km/h
1110 05-12-2018 20:25:00 5.2 C 6.47 g/m*3 5.2 C 0 km/h
1111 05-12-2018 20:30:00 5.2 C 6.47 g/m*3 5.2 C 0 km/h
1112 05-12-2018 20:35:00 5.2 C 6.47 g/m*3 5.2 C 0 km/h
1113 05-12-2018 20:40:00 5.2 C 6.47 g/m*3 5.2 C 0 km/h
1114 05-12-2018 20:45:00 5.1 C 6.43 g/m*3 5.1 C 0 km/h
1115 05-12-2018 20:50:00 5.1 C 6.5 g/m*3 5.1 C 0 km/h
1116 05-12-2018 20:55:00 5.1 C 6.5 g/m*3 5.1 C 0 km/h
1117 05-12-2018 21:00:00 5.2 C 6.54 g/m*3 5.2 C 0 km/h
1118 05-12-2018 21:05:00 5.2 C 6.54 g/m*3 5.2 C 0 km/h
1119 05-12-2018 21:10:00 5.2 C 6.54 g/m*3 5.2 C 0 km/h
1120 05-12-2018 21:15:00 5.2 C 6.54 g/m*3 5.2 C 0 km/h
1121 05-12-2018 21:20:00 5.1 C 6.5 g/m*3 5.1 C 0 km/h
1122 05-12-2018 21:25:00 5 C 6.46 g/m*3 5 C 0 km/h
1123 05-12-2018 21:30:00 4.9 C 6.41 g/m*3 4.9 C 0 km/h
1124 05-12-2018 21:35:00 4.8 C 6.37 g/m*3 4.8 C 0 km/h
1125 05-12-2018 21:40:00 4.9 C 6.41 g/m*3 4.9 C 0 km/h
Sensor: Nr:Datum:Temp:Abs-Feuchte:Windchill:Wind:
Aussen-T/F 1126 05-12-2018 21:45:00 4.9 C 6.41 g/m*3 4.9 C 0 km/h
1127 05-12-2018 21:50:00 4.9 C 6.41 g/m*3 4.9 C 0 km/h
1128 05-12-2018 21:55:00 5 C 6.46 g/m*3 5 C 0 km/h
1129 05-12-2018 22:00:00 5 C 6.46 g/m*3 5 C 0 km/h
1130 05-12-2018 22:05:00 5 C 6.46 g/m*3 5 C 0 km/h
1131 05-12-2018 22:10:00 4.9 C 6.41 g/m*3 4.9 C 0 km/h
1132 05-12-2018 22:15:00 4.9 C 6.41 g/m*3 4.9 C 0 km/h
1133 05-12-2018 22:20:00 5 C 6.46 g/m*3 5 C 0 km/h
1134 05-12-2018 22:25:00 5 C 6.46 g/m*3 5 C 0 km/h
1135 05-12-2018 22:30:00 5.1 C 6.57 g/m*3 5.1 C 0 km/h
1136 05-12-2018 22:35:00 5.1 C 6.57 g/m*3 5.1 C 0 km/h
1137 05-12-2018 22:40:00 5.1 C 6.57 g/m*3 5.1 C 0 km/h
1138 05-12-2018 22:45:00 5.2 C 6.61 g/m*3 5.2 C 0 km/h
1139 05-12-2018 22:50:00 5.2 C 6.61 g/m*3 5.2 C 0 km/h
1140 05-12-2018 22:55:00 5.3 C 6.65 g/m*3 5.3 C 0 km/h
1141 05-12-2018 23:00:00 5.3 C 6.65 g/m*3 5.3 C 0 km/h
1142 05-12-2018 23:05:00 5.4 C 6.7 g/m*3 5.4 C 0 km/h
1143 05-12-2018 23:10:00 5.4 C 6.7 g/m*3 5.4 C 0 km/h
1144 05-12-2018 23:15:00 5.5 C 6.74 g/m*3 5.5 C 0 km/h
1145 05-12-2018 23:20:00 5.6 C 6.79 g/m*3 5.6 C 0 km/h
1146 05-12-2018 23:25:00 5.6 C 6.79 g/m*3 5.6 C 0 km/h
1147 05-12-2018 23:30:00 5.7 C 6.83 g/m*3 5.7 C 0 km/h
1148 05-12-2018 23:35:00 5.7 C 6.83 g/m*3 5.7 C 0 km/h
1149 05-12-2018 23:40:00 5.7 C 6.83 g/m*3 5.7 C 0 km/h
1150 05-12-2018 23:45:00 5.8 C 6.88 g/m*3 5.8 C 0 km/h
Sensor: Nr:Datum:Temp:Abs-Feuchte:Windchill:Wind:
Aussen-T/F 1151 05-12-2018 23:50:00 5.8 C 6.88 g/m*3 5.8 C 0 km/h
1152 05-12-2018 23:55:00 5.8 C 6.88 g/m*3 5.8 C 0 km/h
1153 06-12-2018 00:00:00 5.9 C 6.92 g/m*3 5.9 C 0 km/h
1154 06-12-2018 00:05:00 5.9 C 6.92 g/m*3 5.9 C 0 km/h
1155 06-12-2018 00:10:00 5.9 C 6.92 g/m*3 5.9 C 0 km/h
1156 06-12-2018 00:15:00 5.9 C 6.92 g/m*3 5.9 C 0 km/h
1157 06-12-2018 00:20:00 5.9 C 6.92 g/m*3 5.9 C 0 km/h
1158 06-12-2018 00:25:00 5.9 C 6.92 g/m*3 5.9 C 0 km/h
1159 06-12-2018 00:30:00 6 C 7.04 g/m*3 6 C 1.6 km/h
1160 06-12-2018 00:35:00 6.1 C 7.09 g/m*3 6.1 C 1.6 km/h
1161 06-12-2018 00:40:00 6.1 C 7.09 g/m*3 6.1 C 3.2 km/h
1162 06-12-2018 00:45:00 6.2 C 7.13 g/m*3 6.2 C 3.2 km/h
1163 06-12-2018 00:50:00 6.2 C 7.13 g/m*3 6.2 C 1.6 km/h
1164 06-12-2018 00:55:00 6.2 C 7.13 g/m*3 6.2 C 1.6 km/h
1165 06-12-2018 01:00:00 6.3 C 7.18 g/m*3 6.3 C 1.6 km/h
1166 06-12-2018 01:05:00 6.3 C 7.18 g/m*3 6.3 C 0 km/h
1167 06-12-2018 01:10:00 6.3 C 7.18 g/m*3 6.3 C 0 km/h
1168 06-12-2018 01:15:00 6.3 C 7.18 g/m*3 6.3 C 0 km/h
1169 06-12-2018 01:20:00 6.3 C 7.18 g/m*3 6.3 C 0 km/h
1170 06-12-2018 01:25:00 6.3 C 7.18 g/m*3 6.3 C 0 km/h
1171 06-12-2018 01:30:00 6.3 C 7.18 g/m*3 6.3 C 0 km/h
1172 06-12-2018 01:35:00 6.3 C 7.18 g/m*3 6.3 C 0 km/h
1173 06-12-2018 01:40:00 6.4 C 7.23 g/m*3 6.4 C 0 km/h
1174 06-12-2018 01:45:00 6.4 C 7.23 g/m*3 6.4 C 0 km/h
1175 06-12-2018 01:50:00 6.4 C 7.23 g/m*3 6.4 C 0 km/h
Sensor: Nr:Datum:Temp:Abs-Feuchte:Windchill:Wind:
Aussen-T/F 1176 06-12-2018 01:55:00 6.4 C 7.23 g/m*3 6.4 C 0 km/h
1177 06-12-2018 02:00:00 6.4 C 7.23 g/m*3 6.4 C 0 km/h
1178 06-12-2018 02:05:00 6.3 C 7.18 g/m*3 6.3 C 0 km/h
1179 06-12-2018 02:10:00 6.3 C 7.18 g/m*3 6.3 C 0 km/h
1180 06-12-2018 02:15:00 6.3 C 7.18 g/m*3 6.3 C 0 km/h
1181 06-12-2018 02:20:00 6.3 C 7.18 g/m*3 6.3 C 0 km/h
1182 06-12-2018 02:25:00 6.3 C 7.18 g/m*3 6.3 C 1.6 km/h
1183 06-12-2018 02:30:00 6.3 C 7.18 g/m*3 6.3 C 0 km/h
1184 06-12-2018 02:35:00 6.3 C 7.18 g/m*3 6.3 C 0 km/h
1185 06-12-2018 02:40:00 6.3 C 7.18 g/m*3 6.3 C 0 km/h
1186 06-12-2018 02:45:00 6.2 C 7.13 g/m*3 6.2 C 0 km/h
1187 06-12-2018 02:50:00 6.2 C 7.13 g/m*3 6.2 C 0 km/h
1188 06-12-2018 02:55:00 6.2 C 7.13 g/m*3 6.2 C 0 km/h
1189 06-12-2018 03:00:00 6.2 C 7.13 g/m*3 6.2 C 0 km/h
1190 06-12-2018 03:05:00 6.2 C 7.13 g/m*3 6.2 C 0 km/h
1191 06-12-2018 03:10:00 6.3 C 7.18 g/m*3 6.3 C 0 km/h
1192 06-12-2018 03:15:00 6.3 C 7.18 g/m*3 6.3 C 0 km/h
1193 06-12-2018 03:20:00 6.3 C 7.18 g/m*3 6.3 C 0 km/h
1194 06-12-2018 03:25:00 6.3 C 7.18 g/m*3 6.3 C 0 km/h
1195 06-12-2018 03:30:00 6.3 C 7.18 g/m*3 6.3 C 0 km/h
1196 06-12-2018 03:35:00 6.4 C 7.23 g/m*3 6.4 C 0 km/h
1197 06-12-2018 03:40:00 6.4 C 7.23 g/m*3 6.4 C 0 km/h
1198 06-12-2018 03:45:00 6.4 C 7.23 g/m*3 6.4 C 0 km/h
1199 06-12-2018 03:50:00 6.4 C 7.23 g/m*3 6.4 C 0 km/h
1200 06-12-2018 03:55:00 6.4 C 7.23 g/m*3 6.4 C 0 km/h
Sensor: Nr:Datum:Temp:Abs-Feuchte:Windchill:Wind:
Aussen-T/F 1201 06-12-2018 04:00:00 6.4 C 7.23 g/m*3 6.4 C 0 km/h
1202 06-12-2018 04:05:00 6.4 C 7.23 g/m*3 6.4 C 0 km/h
1203 06-12-2018 04:10:00 6.5 C 7.27 g/m*3 6.5 C 0 km/h
1204 06-12-2018 04:15:00 6.5 C 7.27 g/m*3 6.5 C 0 km/h
1205 06-12-2018 04:20:00 6.5 C 7.27 g/m*3 6.5 C 0 km/h
1206 06-12-2018 04:25:00 6.5 C 7.27 g/m*3 6.5 C 0 km/h
1207 06-12-2018 04:30:00 6.6 C 7.32 g/m*3 6.6 C 0 km/h
1208 06-12-2018 04:35:00 6.6 C 7.32 g/m*3 6.6 C 0 km/h
1209 06-12-2018 04:40:00 6.6 C 7.32 g/m*3 6.6 C 0 km/h
1210 06-12-2018 04:45:00 6.6 C 7.32 g/m*3 6.6 C 0 km/h
1211 06-12-2018 04:50:00 6.6 C 7.32 g/m*3 6.6 C 0 km/h
1212 06-12-2018 04:55:00 6.6 C 7.32 g/m*3 6.6 C 0 km/h
1213 06-12-2018 05:00:00 6.6 C 7.32 g/m*3 6.6 C 0 km/h
1214 06-12-2018 05:05:00 6.7 C 7.37 g/m*3 6.7 C 0 km/h
1215 06-12-2018 05:10:00 6.7 C 7.37 g/m*3 6.7 C 0 km/h
1216 06-12-2018 05:15:00 6.7 C 7.37 g/m*3 6.7 C 0 km/h
1217 06-12-2018 05:20:00 6.7 C 7.37 g/m*3 6.7 C 0 km/h
1218 06-12-2018 05:25:00 6.7 C 7.37 g/m*3 6.7 C 0 km/h
1219 06-12-2018 05:30:00 6.7 C 7.37 g/m*3 6.7 C 0 km/h
1220 06-12-2018 05:35:00 6.7 C 7.37 g/m*3 6.7 C 0 km/h
1221 06-12-2018 05:40:00 6.7 C 7.37 g/m*3 6.7 C 0 km/h
1222 06-12-2018 05:45:00 6.7 C 7.37 g/m*3 6.7 C 0 km/h
1223 06-12-2018 05:50:00 6.8 C 7.42 g/m*3 6.8 C 0 km/h
1224 06-12-2018 05:55:00 6.8 C 7.42 g/m*3 6.8 C 0 km/h
1225 06-12-2018 06:00:00 6.8 C 7.42 g/m*3 6.8 C 0 km/h
Sensor: Nr:Datum:Temp:Abs-Feuchte:Windchill:Wind:
Aussen-T/F 1226 06-12-2018 06:05:00 6.8 C 7.42 g/m*3 6.8 C 0 km/h
1227 06-12-2018 06:10:00 6.8 C 7.42 g/m*3 6.8 C 0 km/h
1228 06-12-2018 06:15:00 6.8 C 7.42 g/m*3 6.8 C 0 km/h
1229 06-12-2018 06:20:00 6.8 C 7.42 g/m*3 6.8 C 0 km/h
1230 06-12-2018 06:25:00 6.9 C 7.47 g/m*3 6.9 C 0 km/h
1231 06-12-2018 06:30:00 6.9 C 7.47 g/m*3 6.9 C 0 km/h
1232 06-12-2018 06:35:00 6.9 C 7.47 g/m*3 6.9 C 0 km/h
1233 06-12-2018 06:40:00 6.9 C 7.47 g/m*3 6.9 C 0 km/h
1234 06-12-2018 06:45:00 6.9 C 7.47 g/m*3 6.9 C 0 km/h
1235 06-12-2018 06:50:00 6.9 C 7.47 g/m*3 6.9 C 0 km/h
1236 06-12-2018 06:55:00 6.9 C 7.47 g/m*3 6.9 C 0 km/h
1237 06-12-2018 07:00:00 7 C 7.52 g/m*3 7 C 0 km/h
1238 06-12-2018 07:05:00 7 C 7.52 g/m*3 7 C 1.6 km/h
1239 06-12-2018 07:10:00 7.1 C 7.57 g/m*3 7.1 C 0 km/h
1240 06-12-2018 07:15:00 7.1 C 7.57 g/m*3 7.1 C 0 km/h
1241 06-12-2018 07:20:00 7.1 C 7.57 g/m*3 7.1 C 0 km/h
1242 06-12-2018 07:25:00 7.2 C 7.61 g/m*3 7.2 C 3.2 km/h
1243 06-12-2018 07:30:00 7.2 C 7.69 g/m*3 7.2 C 1.6 km/h
1244 06-12-2018 07:35:00 7.3 C 7.74 g/m*3 7.3 C 0 km/h
1245 06-12-2018 07:40:00 7.4 C 7.79 g/m*3 7.4 C 4.8 km/h
1246 06-12-2018 07:45:00 7.5 C 7.84 g/m*3 7.5 C 1.6 km/h
1247 06-12-2018 07:50:00 7.5 C 7.84 g/m*3 7.5 C 1.6 km/h
1248 06-12-2018 07:55:00 7.5 C 7.84 g/m*3 7.5 C 1.6 km/h
1249 06-12-2018 08:00:00 7.6 C 7.9 g/m*3 7.6 C 1.6 km/h
1250 06-12-2018 08:05:00 7.6 C 7.9 g/m*3 7.6 C 0 km/h
Sensor: Nr:Datum:Temp:Abs-Feuchte:Windchill:Wind:
Aussen-T/F 1251 06-12-2018 08:10:00 7.7 C 7.95 g/m*3 7.7 C 0 km/h
1252 06-12-2018 08:15:00 7.8 C 8 g/m*3 7.8 C 4.8 km/h
1253 06-12-2018 08:20:00 7.9 C 8.05 g/m*3 7.9 C 3.2 km/h
1254 06-12-2018 08:25:00 8 C 8.1 g/m*3 8 C 1.6 km/h
1255 06-12-2018 08:30:00 8.1 C 8.15 g/m*3 8.1 C 3.2 km/h
1256 06-12-2018 08:35:00 8.2 C 8.21 g/m*3 8.2 C 1.6 km/h
1257 06-12-2018 08:40:00 8.3 C 8.26 g/m*3 6.37 C 11.3 km/h
1258 06-12-2018 08:45:00 8.4 C 8.31 g/m*3 6.49 C 11.3 km/h
1259 06-12-2018 08:50:00 8.6 C 8.42 g/m*3 8.6 C 3.2 km/h
1260 06-12-2018 08:55:00 8.6 C 8.42 g/m*3 7.75 C 6.4 km/h
1261 06-12-2018 09:00:00 8.7 C 8.48 g/m*3 7.87 C 6.4 km/h
1262 06-12-2018 09:05:00 8.8 C 8.53 g/m*3 7.58 C 8.1 km/h
1263 06-12-2018 09:10:00 8.9 C 8.58 g/m*3 7.37 C 9.7 km/h
1264 06-12-2018 09:15:00 9.1 C 8.7 g/m*3 7.33 C 11.3 km/h
1265 06-12-2018 09:20:00 9.1 C 8.7 g/m*3 7.61 C 9.7 km/h
1266 06-12-2018 09:25:00 9.2 C 8.75 g/m*3 7.73 C 9.7 km/h
1267 06-12-2018 09:30:00 9.3 C 8.81 g/m*3 6.92 C 16.1 km/h
1268 06-12-2018 09:35:00 9.3 C 8.81 g/m*3 7.58 C 11.3 km/h
1269 06-12-2018 09:40:00 9.3 C 8.81 g/m*3 7.58 C 11.3 km/h
1270 06-12-2018 09:45:00 9.4 C 8.86 g/m*3 7.46 C 12.9 km/h
1271 06-12-2018 09:50:00 9.4 C 8.86 g/m*3 9.4 C 4.8 km/h
1272 06-12-2018 09:55:00 9.5 C 8.92 g/m*3 8.4 C 8.1 km/h
1273 06-12-2018 10:00:00 9.6 C 8.98 g/m*3 8.21 C 9.7 km/h
1274 06-12-2018 10:05:00 9.6 C 8.98 g/m*3 8.91 C 6.4 km/h
1275 06-12-2018 10:10:00 9.7 C 9.03 g/m*3 9.7 C 4.8 km/h
Sensor: Nr:Datum:Temp:Abs-Feuchte:Windchill:Wind:
Aussen-T/F 1276 06-12-2018 10:15:00 9.7 C 8.94 g/m*3 8.63 C 8.1 km/h
1277 06-12-2018 10:20:00 9.8 C 9 g/m*3 8.18 C 11.3 km/h
1278 06-12-2018 10:25:00 9.9 C 9.06 g/m*3 9.25 C 6.4 km/h
1279 06-12-2018 10:30:00 9.9 C 9.06 g/m*3 9.25 C 6.4 km/h
1280 06-12-2018 10:35:00 10.1 C 9.17 g/m*3 8.8 C 9.7 km/h
1281 06-12-2018 10:40:00 10.1 C 9.17 g/m*3 8.54 C 11.3 km/h
1282 06-12-2018 10:45:00 10.1 C 9.17 g/m*3 8.31 C 12.9 km/h
1283 06-12-2018 10:50:00 10.2 C 9.23 g/m*3 8.66 C 11.3 km/h
1284 06-12-2018 10:55:00 10.2 C 9.14 g/m*3 8.92 C 9.7 km/h
1285 06-12-2018 11:00:00 10.3 C 9.19 g/m*3 9.04 C 9.7 km/h
1286 06-12-2018 11:05:00 10.3 C 9.19 g/m*3 9.72 C 6.4 km/h
1287 06-12-2018 11:10:00 10.4 C 9.25 g/m*3 9.83 C 6.4 km/h
1288 06-12-2018 11:15:00 10.5 C 9.31 g/m*3 10.5 C 3.2 km/h
1289 06-12-2018 11:20:00 10.6 C 9.37 g/m*3 9.69 C 8.1 km/h
1290 06-12-2018 11:25:00 10.6 C 9.37 g/m*3 10.06 C 6.4 km/h
1291 06-12-2018 11:30:00 10.7 C 9.33 g/m*3 9.52 C 9.7 km/h
1292 06-12-2018 11:35:00 10.8 C 9.39 g/m*3 9.38 C 11.3 km/h
1293 06-12-2018 11:40:00 10.9 C 9.45 g/m*3 10.41 C 6.4 km/h
1294 06-12-2018 11:45:00 11 C 9.51 g/m*3 10.16 C 8.1 km/h
1295 06-12-2018 11:50:00 11.1 C 9.57 g/m*3 11.1 C 8.1 km/h
1296 06-12-2018 11:55:00 11.2 C 9.53 g/m*3 11.2 C 11.3 km/h
1297 06-12-2018 12:00:00 11.2 C 9.53 g/m*3 11.2 C 6.4 km/h
1298 06-12-2018 12:05:00 11.2 C 9.53 g/m*3 11.2 C 8.1 km/h
1299 06-12-2018 12:10:00 11.3 C 9.49 g/m*3 11.3 C 8.1 km/h
1300 06-12-2018 12:15:00 11.3 C 9.49 g/m*3 11.3 C 9.7 km/h
Sensor: Nr:Datum:Temp:Abs-Feuchte:Windchill:Wind:
Aussen-T/F 1301 06-12-2018 12:20:00 11.3 C 9.49 g/m*3 11.3 C 9.7 km/h
1302 06-12-2018 12:25:00 11.3 C 9.49 g/m*3 11.3 C 8.1 km/h
1303 06-12-2018 12:30:00 11.3 C 9.49 g/m*3 11.3 C 14.5 km/h
1304 06-12-2018 12:35:00 11.4 C 9.44 g/m*3 11.4 C 14.5 km/h
1305 06-12-2018 12:40:00 11.4 C 9.44 g/m*3 11.4 C 9.7 km/h
1306 06-12-2018 12:45:00 11.4 C 9.44 g/m*3 11.4 C 11.3 km/h
1307 06-12-2018 12:50:00 11.4 C 9.44 g/m*3 11.4 C 17.7 km/h
1308 06-12-2018 12:55:00 11.5 C 9.5 g/m*3 11.5 C 9.7 km/h
1309 06-12-2018 13:00:00 11.5 C 9.5 g/m*3 11.5 C 9.7 km/h
1310 06-12-2018 13:05:00 11.6 C 9.56 g/m*3 11.6 C 8.1 km/h
1311 06-12-2018 13:10:00 11.6 C 9.56 g/m*3 11.6 C 8.1 km/h
1312 06-12-2018 13:15:00 11.7 C 9.62 g/m*3 11.7 C 4.8 km/h
1313 06-12-2018 13:20:00 11.7 C 9.62 g/m*3 11.7 C 6.4 km/h
1314 06-12-2018 13:25:00 11.8 C 9.68 g/m*3 11.8 C 6.4 km/h
1315 06-12-2018 13:30:00 11.8 C 9.58 g/m*3 11.8 C 6.4 km/h
1316 06-12-2018 13:35:00 11.9 C 9.64 g/m*3 11.9 C 3.2 km/h
1317 06-12-2018 13:40:00 11.9 C 9.64 g/m*3 11.9 C 16.1 km/h
1318 06-12-2018 13:45:00 11.9 C 9.64 g/m*3 11.9 C 8.1 km/h
1319 06-12-2018 13:50:00 12 C 9.7 g/m*3 12 C 4.8 km/h
1320 06-12-2018 13:55:00 12.1 C 9.65 g/m*3 12.1 C 4.8 km/h
1321 06-12-2018 14:00:00 12.1 C 9.65 g/m*3 12.1 C 9.7 km/h
1322 06-12-2018 14:05:00 12.1 C 9.65 g/m*3 12.1 C 8.1 km/h
1323 06-12-2018 14:10:00 12.1 C 9.65 g/m*3 12.1 C 9.7 km/h
1324 06-12-2018 14:15:00 12.2 C 9.71 g/m*3 12.2 C 6.4 km/h
1325 06-12-2018 14:20:00 12.2 C 9.71 g/m*3 12.2 C 3.2 km/h
Sensor: Nr:Datum:Temp:Abs-Feuchte:Windchill:Wind:
Aussen-T/F 1326 06-12-2018 14:25:00 12.2 C 9.71 g/m*3 12.2 C 9.7 km/h
1327 06-12-2018 14:30:00 12.2 C 9.71 g/m*3 12.2 C 4.8 km/h
1328 06-12-2018 14:35:00 12.2 C 9.71 g/m*3 12.2 C 4.8 km/h
1329 06-12-2018 14:40:00 12.2 C 9.71 g/m*3 12.2 C 9.7 km/h
1330 06-12-2018 14:45:00 12.2 C 9.71 g/m*3 12.2 C 6.4 km/h
1331 06-12-2018 14:50:00 12.2 C 9.71 g/m*3 12.2 C 9.7 km/h
1332 06-12-2018 14:55:00 12.2 C 9.6 g/m*3 12.2 C 11.3 km/h
1333 06-12-2018 15:00:00 12.2 C 9.6 g/m*3 12.2 C 9.7 km/h
1334 06-12-2018 15:05:00 12.2 C 9.6 g/m*3 12.2 C 9.7 km/h
1335 06-12-2018 15:10:00 12.2 C 9.6 g/m*3 12.2 C 4.8 km/h
1336 06-12-2018 15:15:00 12.1 C 9.54 g/m*3 12.1 C 3.2 km/h
1337 06-12-2018 15:20:00 12.1 C 9.54 g/m*3 12.1 C 3.2 km/h
1338 06-12-2018 15:25:00 12.1 C 9.65 g/m*3 12.1 C 1.6 km/h
1339 06-12-2018 15:30:00 12.1 C 9.65 g/m*3 12.1 C 1.6 km/h
1340 06-12-2018 15:35:00 12 C 9.59 g/m*3 12 C 8.1 km/h
1341 06-12-2018 15:40:00 11.9 C 9.53 g/m*3 11.9 C 6.4 km/h
1342 06-12-2018 15:45:00 11.9 C 9.53 g/m*3 11.9 C 1.6 km/h
1343 06-12-2018 15:50:00 11.9 C 9.53 g/m*3 11.9 C 1.6 km/h
1344 06-12-2018 15:55:00 11.9 C 9.53 g/m*3 11.9 C 4.8 km/h
1345 06-12-2018 16:00:00 11.9 C 9.53 g/m*3 11.9 C 3.2 km/h
1346 06-12-2018 16:05:00 11.9 C 9.53 g/m*3 11.9 C 4.8 km/h
1347 06-12-2018 16:10:00 11.9 C 9.53 g/m*3 11.9 C 4.8 km/h
1348 06-12-2018 16:15:00 11.8 C 9.47 g/m*3 11.8 C 3.2 km/h
1349 06-12-2018 16:20:00 11.8 C 9.47 g/m*3 11.8 C 0 km/h
1350 06-12-2018 16:25:00 11.7 C 9.41 g/m*3 11.7 C 1.6 km/h
Sensor: Nr:Datum:Temp:Abs-Feuchte:Windchill:Wind:
Aussen-T/F 1351 06-12-2018 16:30:00 11.6 C 9.35 g/m*3 11.6 C 3.2 km/h
1352 06-12-2018 16:35:00 11.5 C 9.4 g/m*3 11.5 C 8.1 km/h
1353 06-12-2018 16:40:00 11.5 C 9.4 g/m*3 11.5 C 9.7 km/h
1354 06-12-2018 16:45:00 11.5 C 9.4 g/m*3 11.5 C 11.3 km/h
1355 06-12-2018 16:50:00 11.5 C 9.4 g/m*3 11.5 C 3.2 km/h
1356 06-12-2018 16:55:00 11.5 C 9.4 g/m*3 11.5 C 3.2 km/h
1357 06-12-2018 17:00:00 11.4 C 9.34 g/m*3 11.4 C 3.2 km/h
1358 06-12-2018 17:05:00 11.4 C 9.34 g/m*3 11.4 C 3.2 km/h
1359 06-12-2018 17:10:00 11.4 C 9.34 g/m*3 11.4 C 1.6 km/h
1360 06-12-2018 17:15:00 11.3 C 9.28 g/m*3 11.3 C 1.6 km/h
1361 06-12-2018 17:20:00 11.3 C 9.28 g/m*3 11.3 C 1.6 km/h
1362 06-12-2018 17:25:00 11.3 C 9.28 g/m*3 11.3 C 3.2 km/h
1363 06-12-2018 17:30:00 11.4 C 9.34 g/m*3 11.4 C 4.8 km/h
1364 06-12-2018 17:35:00 11.4 C 9.34 g/m*3 11.4 C 3.2 km/h
1365 06-12-2018 17:40:00 11.4 C 9.34 g/m*3 11.4 C 0 km/h
1366 06-12-2018 17:45:00 11.3 C 9.28 g/m*3 11.3 C 1.6 km/h
1367 06-12-2018 17:50:00 11.3 C 9.28 g/m*3 11.3 C 1.6 km/h
1368 06-12-2018 17:55:00 11.2 C 9.22 g/m*3 11.2 C 1.6 km/h
1369 06-12-2018 18:00:00 11.2 C 9.33 g/m*3 11.2 C 4.8 km/h
1370 06-12-2018 18:05:00 11.2 C 9.33 g/m*3 11.2 C 3.2 km/h
1371 06-12-2018 18:10:00 11.2 C 9.33 g/m*3 11.2 C 4.8 km/h
1372 06-12-2018 18:15:00 11.2 C 9.33 g/m*3 11.2 C 4.8 km/h
1373 06-12-2018 18:20:00 11.3 C 9.38 g/m*3 11.3 C 1.6 km/h
1374 06-12-2018 18:25:00 11.3 C 9.38 g/m*3 11.3 C 8.1 km/h
1375 06-12-2018 18:30:00 11.4 C 9.44 g/m*3 11.4 C 3.2 km/h
Sensor: Nr:Datum:Temp:Abs-Feuchte:Windchill:Wind:
Aussen-T/F 1376 06-12-2018 18:35:00 11.4 C 9.44 g/m*3 11.4 C 3.2 km/h
1377 06-12-2018 18:40:00 11.4 C 9.44 g/m*3 11.4 C 4.8 km/h
1378 06-12-2018 18:45:00 11.5 C 9.5 g/m*3 11.5 C 3.2 km/h
1379 06-12-2018 18:50:00 11.5 C 9.5 g/m*3 11.5 C 4.8 km/h
1380 06-12-2018 18:55:00 11.5 C 9.5 g/m*3 11.5 C 0 km/h
1381 06-12-2018 19:00:00 11.5 C 9.5 g/m*3 11.5 C 4.8 km/h
1382 06-12-2018 19:05:00 11.6 C 9.56 g/m*3 11.6 C 4.8 km/h
1383 06-12-2018 19:10:00 11.7 C 9.62 g/m*3 11.7 C 4.8 km/h
1384 06-12-2018 19:15:00 11.7 C 9.62 g/m*3 11.7 C 4.8 km/h
1385 06-12-2018 19:20:00 11.8 C 9.68 g/m*3 11.8 C 8.1 km/h
1386 06-12-2018 19:25:00 11.8 C 9.68 g/m*3 11.8 C 4.8 km/h
1387 06-12-2018 19:30:00 11.9 C 9.74 g/m*3 11.9 C 16.1 km/h
1388 06-12-2018 19:35:00 12 C 9.8 g/m*3 12 C 6.4 km/h
1389 06-12-2018 19:40:00 12.1 C 9.76 g/m*3 12.1 C 6.4 km/h
1390 06-12-2018 19:45:00 12.1 C 9.76 g/m*3 12.1 C 8.1 km/h
1391 06-12-2018 19:50:00 12.2 C 9.82 g/m*3 12.2 C 6.4 km/h
1392 06-12-2018 19:55:00 12.2 C 9.82 g/m*3 12.2 C 4.8 km/h
1393 06-12-2018 20:00:00 12.2 C 9.82 g/m*3 12.2 C 4.8 km/h
1394 06-12-2018 20:05:00 12.2 C 9.82 g/m*3 12.2 C 11.3 km/h
1395 06-12-2018 20:10:00 12.3 C 9.77 g/m*3 12.3 C 9.7 km/h
1396 06-12-2018 20:15:00 12.3 C 9.77 g/m*3 12.3 C 9.7 km/h
1397 06-12-2018 20:20:00 12.4 C 9.83 g/m*3 12.4 C 19.3 km/h
1398 06-12-2018 20:25:00 12.5 C 9.89 g/m*3 12.5 C 11.3 km/h
1399 06-12-2018 20:30:00 12.6 C 9.96 g/m*3 12.6 C 11.3 km/h
1400 06-12-2018 20:35:00 12.6 C 9.96 g/m*3 12.6 C 20.9 km/h
Sensor: Nr:Datum:Temp:Abs-Feuchte:Windchill:Wind:
Aussen-T/F 1401 06-12-2018 20:40:00 12.6 C 9.96 g/m*3 12.6 C 11.3 km/h
1402 06-12-2018 20:45:00 12.6 C 9.96 g/m*3 12.6 C 9.7 km/h
1403 06-12-2018 20:50:00 12.6 C 9.96 g/m*3 12.6 C 6.4 km/h
1404 06-12-2018 20:55:00 12.6 C 9.96 g/m*3 12.6 C 6.4 km/h
1405 06-12-2018 21:00:00 12.6 C 9.96 g/m*3 12.6 C 6.4 km/h
1406 06-12-2018 21:05:00 12.6 C 9.96 g/m*3 12.6 C 11.3 km/h
1407 06-12-2018 21:10:00 12.7 C 10.02 g/m*3 12.7 C 19.3 km/h
1408 06-12-2018 21:15:00 12.7 C 10.02 g/m*3 12.7 C 4.8 km/h
1409 06-12-2018 21:20:00 12.7 C 10.02 g/m*3 12.7 C 9.7 km/h
1410 06-12-2018 21:25:00 12.7 C 10.02 g/m*3 12.7 C 8.1 km/h
1411 06-12-2018 21:30:00 12.8 C 10.08 g/m*3 12.8 C 12.9 km/h
1412 06-12-2018 21:35:00 12.8 C 10.08 g/m*3 12.8 C 4.8 km/h
1413 06-12-2018 21:40:00 12.8 C 10.08 g/m*3 12.8 C 11.3 km/h
1414 06-12-2018 21:45:00 12.8 C 10.08 g/m*3 12.8 C 12.9 km/h
1415 06-12-2018 21:50:00 12.8 C 10.08 g/m*3 12.8 C 12.9 km/h
1416 06-12-2018 21:55:00 12.8 C 10.08 g/m*3 12.8 C 12.9 km/h
1417 06-12-2018 22:00:00 12.8 C 10.08 g/m*3 12.8 C 6.4 km/h
1418 06-12-2018 22:05:00 12.8 C 10.08 g/m*3 12.8 C 12.9 km/h
1419 06-12-2018 22:10:00 12.7 C 10.02 g/m*3 12.7 C 9.7 km/h
1420 06-12-2018 22:15:00 12.7 C 10.02 g/m*3 12.7 C 4.8 km/h
1421 06-12-2018 22:20:00 12.7 C 10.02 g/m*3 12.7 C 11.3 km/h
1422 06-12-2018 22:25:00 12.7 C 10.02 g/m*3 12.7 C 6.4 km/h
1423 06-12-2018 22:30:00 12.6 C 9.96 g/m*3 12.6 C 6.4 km/h
1424 06-12-2018 22:35:00 12.6 C 9.96 g/m*3 12.6 C 6.4 km/h
1425 06-12-2018 22:40:00 12.6 C 9.96 g/m*3 12.6 C 11.3 km/h
Sensor: Nr:Datum:Temp:Abs-Feuchte:Windchill:Wind:
Aussen-T/F 1426 06-12-2018 22:45:00 12.7 C 10.02 g/m*3 12.7 C 11.3 km/h
1427 06-12-2018 22:50:00 12.7 C 10.02 g/m*3 12.7 C 9.7 km/h
1428 06-12-2018 22:55:00 12.6 C 9.96 g/m*3 12.6 C 12.9 km/h
1429 06-12-2018 23:00:00 12.6 C 9.96 g/m*3 12.6 C 9.7 km/h
1430 06-12-2018 23:05:00 12.6 C 9.96 g/m*3 12.6 C 8.1 km/h
1431 06-12-2018 23:10:00 12.6 C 9.96 g/m*3 12.6 C 11.3 km/h
1432 06-12-2018 23:15:00 12.6 C 9.96 g/m*3 12.6 C 3.2 km/h
1433 06-12-2018 23:20:00 12.6 C 9.96 g/m*3 12.6 C 8.1 km/h
1434 06-12-2018 23:25:00 12.6 C 9.96 g/m*3 12.6 C 4.8 km/h
1435 06-12-2018 23:30:00 12.6 C 9.96 g/m*3 12.6 C 12.9 km/h
1436 06-12-2018 23:35:00 12.6 C 9.96 g/m*3 12.6 C 11.3 km/h
1437 06-12-2018 23:40:00 12.7 C 10.02 g/m*3 12.7 C 9.7 km/h
1438 06-12-2018 23:45:00 12.7 C 10.02 g/m*3 12.7 C 11.3 km/h
1439 06-12-2018 23:50:00 12.7 C 10.02 g/m*3 12.7 C 14.5 km/h
1440 06-12-2018 23:55:00 12.8 C 9.97 g/m*3 12.8 C 17.7 km/h

Legende:
   Min
   Max


Maximal/Minimal-Werte vom 02.12.2018 - 06.12.2018

Sensor Min Max Avg
Temp
(Aussen-T/F)
1.1 °C
05-12-2018  02:35:00
14 °C
02-12-2018  18:55:00
8.58 °C
Abs-Feuchte
(Aussen-T/F)
5 g/m*3
04-12-2018  21:45:00
11.1 g/m*3
02-12-2018  18:55:00
8.25 g/m*3
Windchill
(Aussen-T/F)
1.1 C
05-12-2018  02:35:00
14 C
02-12-2018  18:55:00
8.4 C

Die Daten stammen von einer Davis Vantage Pro 2 Wetter-Station und werden unter Linux mit der Software wview2wettercgi und aufbereitet. Alle Angaben erfolgen ohne Gewähr für ihre Vollständigkeit oder Richtigkeit.
Kontakt: Rainer Krienke krienke@uni-koblenz.de . Meine Webseiten an der Uni Koblenz oder privat.
Version: $Revision: 0.78 $